<?xml version="1.0" encoding="UTF-8"?>
<gpx version="1.1" creator="https://www.youtrack.es" xsi:schemaLocation="http://www.topografix.com/GPX/1/1 http://www.topografix.com/GPX/1/1/gpx.xsd http://www.garmin.com/xmlschemas/GpxExtensions/v3 http://www.garmin.com/xmlschemas/GpxExtensionsv3.xsd http://www.garmin.com/xmlschemas/TrackPointExtension/v1 http://www.garmin.com/xmlschemas/TrackPointExtensionv1.xsd" xmlns:gpxtpx="http://www.garmin.com/xmlschemas/TrackPointExtension/v1" xmlns:gpxx="http://www.garmin.com/xmlschemas/GpxExtensions/v3" xmlns:xsi="http://www.w3.org/2001/XMLSchema-instance">
  <metadata>
    <link href="https://www.youtrack.es">
      <text>YouTrack.es</text>
    </link>
    <time>2026-05-08T22:29:39Z</time>
  </metadata>
  <trk>
    <src>https://www.youtrack.es</src>
    <link href="https://www.youtrack.es/ruta/37880-atalaya">
      <text>YouTrack.es</text>
    </link>
    <trkseg>
      <trkpt lat="38.9916630" lon="-3.9268690">
        <ele>627.9</ele>
        <time>2022-11-01T11:53:05Z</time>
      </trkpt>
      <trkpt lat="38.9917300" lon="-3.9269000">
        <ele>627.9</ele>
        <time>2022-11-01T11:53:11Z</time>
      </trkpt>
      <trkpt lat="38.9917840" lon="-3.9268970">
        <ele>627.9</ele>
        <time>2022-11-01T11:53:16Z</time>
      </trkpt>
      <trkpt lat="38.9918320" lon="-3.9269110">
        <ele>627.9</ele>
        <time>2022-11-01T11:53:19Z</time>
      </trkpt>
      <trkpt lat="38.9918760" lon="-3.9269010">
        <ele>627.9</ele>
        <time>2022-11-01T11:53:22Z</time>
      </trkpt>
      <trkpt lat="38.9918870" lon="-3.9269070">
        <ele>627.9</ele>
        <time>2022-11-01T11:53:23Z</time>
      </trkpt>
      <trkpt lat="38.9919080" lon="-3.9269020">
        <ele>627.9</ele>
        <time>2022-11-01T11:53:25Z</time>
      </trkpt>
      <trkpt lat="38.9919370" lon="-3.9269070">
        <ele>627.9</ele>
        <time>2022-11-01T11:53:28Z</time>
      </trkpt>
      <trkpt lat="38.9919650" lon="-3.9269180">
        <ele>627.9</ele>
        <time>2022-11-01T11:53:30Z</time>
      </trkpt>
      <trkpt lat="38.9919850" lon="-3.9269150">
        <ele>627.9</ele>
        <time>2022-11-01T11:53:32Z</time>
      </trkpt>
      <trkpt lat="38.9919950" lon="-3.9269240">
        <ele>627.9</ele>
        <time>2022-11-01T11:53:33Z</time>
      </trkpt>
      <trkpt lat="38.9920630" lon="-3.9269690">
        <ele>627.8</ele>
        <time>2022-11-01T11:53:39Z</time>
      </trkpt>
      <trkpt lat="38.9921760" lon="-3.9269430">
        <ele>627.8</ele>
        <time>2022-11-01T11:53:48Z</time>
      </trkpt>
      <trkpt lat="38.9921860" lon="-3.9269430">
        <ele>627.8</ele>
        <time>2022-11-01T11:53:49Z</time>
      </trkpt>
      <trkpt lat="38.9922470" lon="-3.9269510">
        <ele>627.8</ele>
        <time>2022-11-01T11:53:54Z</time>
      </trkpt>
      <trkpt lat="38.9922730" lon="-3.9269560">
        <ele>627.8</ele>
        <time>2022-11-01T11:53:56Z</time>
      </trkpt>
      <trkpt lat="38.9922960" lon="-3.9269480">
        <ele>627.8</ele>
        <time>2022-11-01T11:53:58Z</time>
      </trkpt>
      <trkpt lat="38.9923180" lon="-3.9269300">
        <ele>627.8</ele>
        <time>2022-11-01T11:54:00Z</time>
      </trkpt>
      <trkpt lat="38.9923260" lon="-3.9269060">
        <ele>627.8</ele>
        <time>2022-11-01T11:54:02Z</time>
      </trkpt>
      <trkpt lat="38.9923340" lon="-3.9268720">
        <ele>627.7</ele>
        <time>2022-11-01T11:54:05Z</time>
      </trkpt>
      <trkpt lat="38.9924060" lon="-3.9267500">
        <ele>628.2</ele>
        <time>2022-11-01T11:54:13Z</time>
      </trkpt>
      <trkpt lat="38.9924440" lon="-3.9266680">
        <ele>628.4</ele>
        <time>2022-11-01T11:54:19Z</time>
      </trkpt>
      <trkpt lat="38.9924620" lon="-3.9266250">
        <ele>628.5</ele>
        <time>2022-11-01T11:54:22Z</time>
      </trkpt>
      <trkpt lat="38.9924710" lon="-3.9265920">
        <ele>628.5</ele>
        <time>2022-11-01T11:54:24Z</time>
      </trkpt>
      <trkpt lat="38.9924740" lon="-3.9265780">
        <ele>628.5</ele>
        <time>2022-11-01T11:54:25Z</time>
      </trkpt>
      <trkpt lat="38.9924780" lon="-3.9264870">
        <ele>628.7</ele>
        <time>2022-11-01T11:54:31Z</time>
      </trkpt>
      <trkpt lat="38.9924760" lon="-3.9264710">
        <ele>628.7</ele>
        <time>2022-11-01T11:54:32Z</time>
      </trkpt>
      <trkpt lat="38.9924810" lon="-3.9264510">
        <ele>628.7</ele>
        <time>2022-11-01T11:54:33Z</time>
      </trkpt>
      <trkpt lat="38.9924930" lon="-3.9263420">
        <ele>628.8</ele>
        <time>2022-11-01T11:54:38Z</time>
      </trkpt>
      <trkpt lat="38.9925090" lon="-3.9262100">
        <ele>628.9</ele>
        <time>2022-11-01T11:54:47Z</time>
      </trkpt>
      <trkpt lat="38.9925030" lon="-3.9261190">
        <ele>628.9</ele>
        <time>2022-11-01T11:54:53Z</time>
      </trkpt>
      <trkpt lat="38.9925090" lon="-3.9260200">
        <ele>629.0</ele>
        <time>2022-11-01T11:54:59Z</time>
      </trkpt>
      <trkpt lat="38.9925100" lon="-3.9260090">
        <ele>629.0</ele>
        <time>2022-11-01T11:55:00Z</time>
      </trkpt>
      <trkpt lat="38.9925020" lon="-3.9259290">
        <ele>629.0</ele>
        <time>2022-11-01T11:55:05Z</time>
      </trkpt>
      <trkpt lat="38.9925080" lon="-3.9258810">
        <ele>629.1</ele>
        <time>2022-11-01T11:55:07Z</time>
      </trkpt>
      <trkpt lat="38.9925050" lon="-3.9258190">
        <ele>629.1</ele>
        <time>2022-11-01T11:55:11Z</time>
      </trkpt>
      <trkpt lat="38.9925040" lon="-3.9257940">
        <ele>629.1</ele>
        <time>2022-11-01T11:55:13Z</time>
      </trkpt>
      <trkpt lat="38.9925060" lon="-3.9257450">
        <ele>629.1</ele>
        <time>2022-11-01T11:55:17Z</time>
      </trkpt>
      <trkpt lat="38.9925260" lon="-3.9256430">
        <ele>629.2</ele>
        <time>2022-11-01T11:55:23Z</time>
      </trkpt>
      <trkpt lat="38.9925540" lon="-3.9254940">
        <ele>629.1</ele>
        <time>2022-11-01T11:55:31Z</time>
      </trkpt>
      <trkpt lat="38.9925950" lon="-3.9253750">
        <ele>629.1</ele>
        <time>2022-11-01T11:55:39Z</time>
      </trkpt>
      <trkpt lat="38.9926300" lon="-3.9252860">
        <ele>629.1</ele>
        <time>2022-11-01T11:55:45Z</time>
      </trkpt>
      <trkpt lat="38.9926390" lon="-3.9252460">
        <ele>629.1</ele>
        <time>2022-11-01T11:55:48Z</time>
      </trkpt>
      <trkpt lat="38.9926430" lon="-3.9251330">
        <ele>629.1</ele>
        <time>2022-11-01T11:55:54Z</time>
      </trkpt>
      <trkpt lat="38.9926610" lon="-3.9250000">
        <ele>629.1</ele>
        <time>2022-11-01T11:56:02Z</time>
      </trkpt>
      <trkpt lat="38.9926680" lon="-3.9249870">
        <ele>629.1</ele>
        <time>2022-11-01T11:56:03Z</time>
      </trkpt>
      <trkpt lat="38.9926830" lon="-3.9249280">
        <ele>629.1</ele>
        <time>2022-11-01T11:56:08Z</time>
      </trkpt>
      <trkpt lat="38.9926820" lon="-3.9249160">
        <ele>629.1</ele>
        <time>2022-11-01T11:56:09Z</time>
      </trkpt>
      <trkpt lat="38.9926830" lon="-3.9248720">
        <ele>629.0</ele>
        <time>2022-11-01T11:56:12Z</time>
      </trkpt>
      <trkpt lat="38.9926990" lon="-3.9248210">
        <ele>629.0</ele>
        <time>2022-11-01T11:56:15Z</time>
      </trkpt>
      <trkpt lat="38.9927330" lon="-3.9247000">
        <ele>629.0</ele>
        <time>2022-11-01T11:56:22Z</time>
      </trkpt>
      <trkpt lat="38.9927300" lon="-3.9246420">
        <ele>628.9</ele>
        <time>2022-11-01T11:56:25Z</time>
      </trkpt>
      <trkpt lat="38.9927220" lon="-3.9246040">
        <ele>628.9</ele>
        <time>2022-11-01T11:56:27Z</time>
      </trkpt>
      <trkpt lat="38.9927150" lon="-3.9245870">
        <ele>628.9</ele>
        <time>2022-11-01T11:56:28Z</time>
      </trkpt>
      <trkpt lat="38.9927180" lon="-3.9245550">
        <ele>628.9</ele>
        <time>2022-11-01T11:56:30Z</time>
      </trkpt>
      <trkpt lat="38.9927220" lon="-3.9245300">
        <ele>628.9</ele>
        <time>2022-11-01T11:56:32Z</time>
      </trkpt>
      <trkpt lat="38.9927420" lon="-3.9244390">
        <ele>628.9</ele>
        <time>2022-11-01T11:56:40Z</time>
      </trkpt>
      <trkpt lat="38.9927560" lon="-3.9243690">
        <ele>628.9</ele>
        <time>2022-11-01T11:56:45Z</time>
      </trkpt>
      <trkpt lat="38.9927810" lon="-3.9242660">
        <ele>628.9</ele>
        <time>2022-11-01T11:56:52Z</time>
      </trkpt>
      <trkpt lat="38.9927830" lon="-3.9242520">
        <ele>628.9</ele>
        <time>2022-11-01T11:56:53Z</time>
      </trkpt>
      <trkpt lat="38.9927950" lon="-3.9241700">
        <ele>628.9</ele>
        <time>2022-11-01T11:56:56Z</time>
      </trkpt>
      <trkpt lat="38.9928160" lon="-3.9241140">
        <ele>628.9</ele>
        <time>2022-11-01T11:56:59Z</time>
      </trkpt>
      <trkpt lat="38.9928270" lon="-3.9240120">
        <ele>628.9</ele>
        <time>2022-11-01T11:57:05Z</time>
      </trkpt>
      <trkpt lat="38.9928310" lon="-3.9239970">
        <ele>628.8</ele>
        <time>2022-11-01T11:57:06Z</time>
      </trkpt>
      <trkpt lat="38.9928580" lon="-3.9238880">
        <ele>628.8</ele>
        <time>2022-11-01T11:57:13Z</time>
      </trkpt>
      <trkpt lat="38.9928640" lon="-3.9238790">
        <ele>628.8</ele>
        <time>2022-11-01T11:57:14Z</time>
      </trkpt>
      <trkpt lat="38.9928720" lon="-3.9238570">
        <ele>628.8</ele>
        <time>2022-11-01T11:57:16Z</time>
      </trkpt>
      <trkpt lat="38.9928680" lon="-3.9238290">
        <ele>628.8</ele>
        <time>2022-11-01T11:57:18Z</time>
      </trkpt>
      <trkpt lat="38.9928710" lon="-3.9238180">
        <ele>628.8</ele>
        <time>2022-11-01T11:57:19Z</time>
      </trkpt>
      <trkpt lat="38.9928880" lon="-3.9236860">
        <ele>628.7</ele>
        <time>2022-11-01T11:57:25Z</time>
      </trkpt>
      <trkpt lat="38.9929040" lon="-3.9235450">
        <ele>628.7</ele>
        <time>2022-11-01T11:57:33Z</time>
      </trkpt>
      <trkpt lat="38.9929070" lon="-3.9235310">
        <ele>628.6</ele>
        <time>2022-11-01T11:57:34Z</time>
      </trkpt>
      <trkpt lat="38.9929270" lon="-3.9234710">
        <ele>628.6</ele>
        <time>2022-11-01T11:57:39Z</time>
      </trkpt>
      <trkpt lat="38.9929440" lon="-3.9234450">
        <ele>628.6</ele>
        <time>2022-11-01T11:57:41Z</time>
      </trkpt>
      <trkpt lat="38.9929420" lon="-3.9233840">
        <ele>628.6</ele>
        <time>2022-11-01T11:57:46Z</time>
      </trkpt>
      <trkpt lat="38.9929540" lon="-3.9233160">
        <ele>628.5</ele>
        <time>2022-11-01T11:57:50Z</time>
      </trkpt>
      <trkpt lat="38.9929450" lon="-3.9232680">
        <ele>628.5</ele>
        <time>2022-11-01T11:57:53Z</time>
      </trkpt>
      <trkpt lat="38.9928940" lon="-3.9231460">
        <ele>628.5</ele>
        <time>2022-11-01T11:58:01Z</time>
      </trkpt>
      <trkpt lat="38.9929030" lon="-3.9231040">
        <ele>628.4</ele>
        <time>2022-11-01T11:58:04Z</time>
      </trkpt>
      <trkpt lat="38.9929020" lon="-3.9230650">
        <ele>628.4</ele>
        <time>2022-11-01T11:58:07Z</time>
      </trkpt>
      <trkpt lat="38.9928490" lon="-3.9229590">
        <ele>628.4</ele>
        <time>2022-11-01T11:58:14Z</time>
      </trkpt>
      <trkpt lat="38.9928120" lon="-3.9229220">
        <ele>628.4</ele>
        <time>2022-11-01T11:58:17Z</time>
      </trkpt>
      <trkpt lat="38.9927820" lon="-3.9229020">
        <ele>628.4</ele>
        <time>2022-11-01T11:58:20Z</time>
      </trkpt>
      <trkpt lat="38.9927240" lon="-3.9228380">
        <ele>628.4</ele>
        <time>2022-11-01T11:58:28Z</time>
      </trkpt>
      <trkpt lat="38.9926530" lon="-3.9227740">
        <ele>628.3</ele>
        <time>2022-11-01T11:58:36Z</time>
      </trkpt>
      <trkpt lat="38.9926110" lon="-3.9227230">
        <ele>628.3</ele>
        <time>2022-11-01T11:58:44Z</time>
      </trkpt>
      <trkpt lat="38.9926060" lon="-3.9227120">
        <ele>628.3</ele>
        <time>2022-11-01T11:58:50Z</time>
      </trkpt>
      <trkpt lat="38.9925870" lon="-3.9226790">
        <ele>628.3</ele>
        <time>2022-11-01T11:59:22Z</time>
      </trkpt>
      <trkpt lat="38.9925960" lon="-3.9225880">
        <ele>628.1</ele>
        <time>2022-11-01T11:59:29Z</time>
      </trkpt>
      <trkpt lat="38.9926030" lon="-3.9225120">
        <ele>627.8</ele>
        <time>2022-11-01T11:59:33Z</time>
      </trkpt>
      <trkpt lat="38.9926030" lon="-3.9224630">
        <ele>627.7</ele>
        <time>2022-11-01T11:59:35Z</time>
      </trkpt>
      <trkpt lat="38.9926140" lon="-3.9224320">
        <ele>627.7</ele>
        <time>2022-11-01T11:59:37Z</time>
      </trkpt>
      <trkpt lat="38.9926430" lon="-3.9224120">
        <ele>627.7</ele>
        <time>2022-11-01T11:59:39Z</time>
      </trkpt>
      <trkpt lat="38.9926620" lon="-3.9223770">
        <ele>627.7</ele>
        <time>2022-11-01T11:59:41Z</time>
      </trkpt>
      <trkpt lat="38.9926790" lon="-3.9223500">
        <ele>627.6</ele>
        <time>2022-11-01T11:59:43Z</time>
      </trkpt>
      <trkpt lat="38.9926910" lon="-3.9222890">
        <ele>627.6</ele>
        <time>2022-11-01T11:59:46Z</time>
      </trkpt>
      <trkpt lat="38.9926910" lon="-3.9222660">
        <ele>627.6</ele>
        <time>2022-11-01T11:59:47Z</time>
      </trkpt>
      <trkpt lat="38.9926940" lon="-3.9222520">
        <ele>627.6</ele>
        <time>2022-11-01T11:59:48Z</time>
      </trkpt>
      <trkpt lat="38.9927050" lon="-3.9222380">
        <ele>627.6</ele>
        <time>2022-11-01T11:59:50Z</time>
      </trkpt>
      <trkpt lat="38.9927140" lon="-3.9222290">
        <ele>627.6</ele>
        <time>2022-11-01T11:59:51Z</time>
      </trkpt>
      <trkpt lat="38.9927340" lon="-3.9221970">
        <ele>627.5</ele>
        <time>2022-11-01T11:59:53Z</time>
      </trkpt>
      <trkpt lat="38.9927700" lon="-3.9221690">
        <ele>627.5</ele>
        <time>2022-11-01T11:59:56Z</time>
      </trkpt>
      <trkpt lat="38.9927840" lon="-3.9221610">
        <ele>627.5</ele>
        <time>2022-11-01T11:59:58Z</time>
      </trkpt>
      <trkpt lat="38.9928010" lon="-3.9221560">
        <ele>627.5</ele>
        <time>2022-11-01T12:00:00Z</time>
      </trkpt>
      <trkpt lat="38.9928150" lon="-3.9221340">
        <ele>627.5</ele>
        <time>2022-11-01T12:00:02Z</time>
      </trkpt>
      <trkpt lat="38.9928240" lon="-3.9220690">
        <ele>627.4</ele>
        <time>2022-11-01T12:00:05Z</time>
      </trkpt>
      <trkpt lat="38.9928190" lon="-3.9220210">
        <ele>627.4</ele>
        <time>2022-11-01T12:00:07Z</time>
      </trkpt>
      <trkpt lat="38.9928230" lon="-3.9219860">
        <ele>627.4</ele>
        <time>2022-11-01T12:00:09Z</time>
      </trkpt>
      <trkpt lat="38.9928330" lon="-3.9219480">
        <ele>627.4</ele>
        <time>2022-11-01T12:00:11Z</time>
      </trkpt>
      <trkpt lat="38.9929100" lon="-3.9218410">
        <ele>627.3</ele>
        <time>2022-11-01T12:00:19Z</time>
      </trkpt>
      <trkpt lat="38.9929450" lon="-3.9218190">
        <ele>627.3</ele>
        <time>2022-11-01T12:00:22Z</time>
      </trkpt>
      <trkpt lat="38.9929730" lon="-3.9217870">
        <ele>627.2</ele>
        <time>2022-11-01T12:00:25Z</time>
      </trkpt>
      <trkpt lat="38.9929840" lon="-3.9217780">
        <ele>627.2</ele>
        <time>2022-11-01T12:00:26Z</time>
      </trkpt>
      <trkpt lat="38.9930650" lon="-3.9217660">
        <ele>627.2</ele>
        <time>2022-11-01T12:00:31Z</time>
      </trkpt>
      <trkpt lat="38.9930800" lon="-3.9217530">
        <ele>627.2</ele>
        <time>2022-11-01T12:00:33Z</time>
      </trkpt>
      <trkpt lat="38.9931120" lon="-3.9217320">
        <ele>627.2</ele>
        <time>2022-11-01T12:00:36Z</time>
      </trkpt>
      <trkpt lat="38.9931340" lon="-3.9216900">
        <ele>627.2</ele>
        <time>2022-11-01T12:00:39Z</time>
      </trkpt>
      <trkpt lat="38.9931880" lon="-3.9216460">
        <ele>627.2</ele>
        <time>2022-11-01T12:00:43Z</time>
      </trkpt>
      <trkpt lat="38.9932430" lon="-3.9216060">
        <ele>627.1</ele>
        <time>2022-11-01T12:00:47Z</time>
      </trkpt>
      <trkpt lat="38.9932530" lon="-3.9216010">
        <ele>627.1</ele>
        <time>2022-11-01T12:00:48Z</time>
      </trkpt>
      <trkpt lat="38.9932790" lon="-3.9215450">
        <ele>627.1</ele>
        <time>2022-11-01T12:00:53Z</time>
      </trkpt>
      <trkpt lat="38.9933630" lon="-3.9214210">
        <ele>627.2</ele>
        <time>2022-11-01T12:01:02Z</time>
      </trkpt>
      <trkpt lat="38.9934550" lon="-3.9212700">
        <ele>627.4</ele>
        <time>2022-11-01T12:01:12Z</time>
      </trkpt>
      <trkpt lat="38.9934700" lon="-3.9212490">
        <ele>627.4</ele>
        <time>2022-11-01T12:01:14Z</time>
      </trkpt>
      <trkpt lat="38.9935000" lon="-3.9212220">
        <ele>627.5</ele>
        <time>2022-11-01T12:01:17Z</time>
      </trkpt>
      <trkpt lat="38.9935100" lon="-3.9211950">
        <ele>627.5</ele>
        <time>2022-11-01T12:01:19Z</time>
      </trkpt>
      <trkpt lat="38.9935130" lon="-3.9211790">
        <ele>627.5</ele>
        <time>2022-11-01T12:01:20Z</time>
      </trkpt>
      <trkpt lat="38.9935390" lon="-3.9211380">
        <ele>627.6</ele>
        <time>2022-11-01T12:01:23Z</time>
      </trkpt>
      <trkpt lat="38.9935490" lon="-3.9211250">
        <ele>627.6</ele>
        <time>2022-11-01T12:01:24Z</time>
      </trkpt>
      <trkpt lat="38.9935850" lon="-3.9211150">
        <ele>627.7</ele>
        <time>2022-11-01T12:01:28Z</time>
      </trkpt>
      <trkpt lat="38.9936420" lon="-3.9211250">
        <ele>627.7</ele>
        <time>2022-11-01T12:01:33Z</time>
      </trkpt>
      <trkpt lat="38.9936720" lon="-3.9210860">
        <ele>628.0</ele>
        <time>2022-11-01T12:01:37Z</time>
      </trkpt>
      <trkpt lat="38.9936970" lon="-3.9210560">
        <ele>628.1</ele>
        <time>2022-11-01T12:01:40Z</time>
      </trkpt>
      <trkpt lat="38.9937090" lon="-3.9210480">
        <ele>628.2</ele>
        <time>2022-11-01T12:01:41Z</time>
      </trkpt>
      <trkpt lat="38.9937860" lon="-3.9210240">
        <ele>628.5</ele>
        <time>2022-11-01T12:01:46Z</time>
      </trkpt>
      <trkpt lat="38.9937940" lon="-3.9210270">
        <ele>628.6</ele>
        <time>2022-11-01T12:01:47Z</time>
      </trkpt>
      <trkpt lat="38.9938970" lon="-3.9210230">
        <ele>628.8</ele>
        <time>2022-11-01T12:01:54Z</time>
      </trkpt>
      <trkpt lat="38.9939530" lon="-3.9209550">
        <ele>629.0</ele>
        <time>2022-11-01T12:02:00Z</time>
      </trkpt>
      <trkpt lat="38.9939610" lon="-3.9209240">
        <ele>629.1</ele>
        <time>2022-11-01T12:02:02Z</time>
      </trkpt>
      <trkpt lat="38.9940260" lon="-3.9207940">
        <ele>629.3</ele>
        <time>2022-11-01T12:02:11Z</time>
      </trkpt>
      <trkpt lat="38.9940810" lon="-3.9206810">
        <ele>629.3</ele>
        <time>2022-11-01T12:02:21Z</time>
      </trkpt>
      <trkpt lat="38.9940850" lon="-3.9206640">
        <ele>629.4</ele>
        <time>2022-11-01T12:02:22Z</time>
      </trkpt>
      <trkpt lat="38.9940980" lon="-3.9206310">
        <ele>629.4</ele>
        <time>2022-11-01T12:02:24Z</time>
      </trkpt>
      <trkpt lat="38.9941180" lon="-3.9205940">
        <ele>629.4</ele>
        <time>2022-11-01T12:02:27Z</time>
      </trkpt>
      <trkpt lat="38.9941380" lon="-3.9205050">
        <ele>629.4</ele>
        <time>2022-11-01T12:02:32Z</time>
      </trkpt>
      <trkpt lat="38.9941580" lon="-3.9204820">
        <ele>629.4</ele>
        <time>2022-11-01T12:02:34Z</time>
      </trkpt>
      <trkpt lat="38.9941650" lon="-3.9204690">
        <ele>629.4</ele>
        <time>2022-11-01T12:02:35Z</time>
      </trkpt>
      <trkpt lat="38.9941870" lon="-3.9204090">
        <ele>629.4</ele>
        <time>2022-11-01T12:02:39Z</time>
      </trkpt>
      <trkpt lat="38.9941970" lon="-3.9203950">
        <ele>629.4</ele>
        <time>2022-11-01T12:02:40Z</time>
      </trkpt>
      <trkpt lat="38.9942640" lon="-3.9202650">
        <ele>629.0</ele>
        <time>2022-11-01T12:02:48Z</time>
      </trkpt>
      <trkpt lat="38.9942830" lon="-3.9202210">
        <ele>628.8</ele>
        <time>2022-11-01T12:02:52Z</time>
      </trkpt>
      <trkpt lat="38.9942840" lon="-3.9201970">
        <ele>628.9</ele>
        <time>2022-11-01T12:02:54Z</time>
      </trkpt>
      <trkpt lat="38.9942890" lon="-3.9201860">
        <ele>628.9</ele>
        <time>2022-11-01T12:02:55Z</time>
      </trkpt>
      <trkpt lat="38.9943160" lon="-3.9201170">
        <ele>628.8</ele>
        <time>2022-11-01T12:03:01Z</time>
      </trkpt>
      <trkpt lat="38.9943750" lon="-3.9200330">
        <ele>628.4</ele>
        <time>2022-11-01T12:03:08Z</time>
      </trkpt>
      <trkpt lat="38.9944070" lon="-3.9199750">
        <ele>628.2</ele>
        <time>2022-11-01T12:03:13Z</time>
      </trkpt>
      <trkpt lat="38.9944200" lon="-3.9199480">
        <ele>628.2</ele>
        <time>2022-11-01T12:03:16Z</time>
      </trkpt>
      <trkpt lat="38.9944950" lon="-3.9198620">
        <ele>627.9</ele>
        <time>2022-11-01T12:03:23Z</time>
      </trkpt>
      <trkpt lat="38.9945930" lon="-3.9197280">
        <ele>627.6</ele>
        <time>2022-11-01T12:03:33Z</time>
      </trkpt>
      <trkpt lat="38.9946520" lon="-3.9196170">
        <ele>627.5</ele>
        <time>2022-11-01T12:03:41Z</time>
      </trkpt>
      <trkpt lat="38.9946750" lon="-3.9195970">
        <ele>627.5</ele>
        <time>2022-11-01T12:03:43Z</time>
      </trkpt>
      <trkpt lat="38.9947570" lon="-3.9195650">
        <ele>627.5</ele>
        <time>2022-11-01T12:03:51Z</time>
      </trkpt>
      <trkpt lat="38.9948970" lon="-3.9195510">
        <ele>627.3</ele>
        <time>2022-11-01T12:04:01Z</time>
      </trkpt>
      <trkpt lat="38.9950170" lon="-3.9195360">
        <ele>627.1</ele>
        <time>2022-11-01T12:04:11Z</time>
      </trkpt>
      <trkpt lat="38.9951510" lon="-3.9194920">
        <ele>626.8</ele>
        <time>2022-11-01T12:04:22Z</time>
      </trkpt>
      <trkpt lat="38.9951710" lon="-3.9194750">
        <ele>626.8</ele>
        <time>2022-11-01T12:04:24Z</time>
      </trkpt>
      <trkpt lat="38.9951980" lon="-3.9194520">
        <ele>626.8</ele>
        <time>2022-11-01T12:04:27Z</time>
      </trkpt>
      <trkpt lat="38.9952280" lon="-3.9194140">
        <ele>626.8</ele>
        <time>2022-11-01T12:04:30Z</time>
      </trkpt>
      <trkpt lat="38.9952830" lon="-3.9193340">
        <ele>626.8</ele>
        <time>2022-11-01T12:04:35Z</time>
      </trkpt>
      <trkpt lat="38.9953010" lon="-3.9193150">
        <ele>626.8</ele>
        <time>2022-11-01T12:04:37Z</time>
      </trkpt>
      <trkpt lat="38.9953310" lon="-3.9192760">
        <ele>626.9</ele>
        <time>2022-11-01T12:04:42Z</time>
      </trkpt>
      <trkpt lat="38.9954400" lon="-3.9191540">
        <ele>627.2</ele>
        <time>2022-11-01T12:04:54Z</time>
      </trkpt>
      <trkpt lat="38.9955750" lon="-3.9190200">
        <ele>627.5</ele>
        <time>2022-11-01T12:05:07Z</time>
      </trkpt>
      <trkpt lat="38.9956900" lon="-3.9188820">
        <ele>627.7</ele>
        <time>2022-11-01T12:05:18Z</time>
      </trkpt>
      <trkpt lat="38.9957820" lon="-3.9187880">
        <ele>627.7</ele>
        <time>2022-11-01T12:05:28Z</time>
      </trkpt>
      <trkpt lat="38.9959040" lon="-3.9187400">
        <ele>627.8</ele>
        <time>2022-11-01T12:05:39Z</time>
      </trkpt>
      <trkpt lat="38.9959270" lon="-3.9187250">
        <ele>627.8</ele>
        <time>2022-11-01T12:05:41Z</time>
      </trkpt>
      <trkpt lat="38.9960250" lon="-3.9186670">
        <ele>627.8</ele>
        <time>2022-11-01T12:05:49Z</time>
      </trkpt>
      <trkpt lat="38.9961070" lon="-3.9185980">
        <ele>627.9</ele>
        <time>2022-11-01T12:05:57Z</time>
      </trkpt>
      <trkpt lat="38.9962010" lon="-3.9185480">
        <ele>627.9</ele>
        <time>2022-11-01T12:06:06Z</time>
      </trkpt>
      <trkpt lat="38.9962920" lon="-3.9185120">
        <ele>628.0</ele>
        <time>2022-11-01T12:06:14Z</time>
      </trkpt>
      <trkpt lat="38.9964130" lon="-3.9185020">
        <ele>628.0</ele>
        <time>2022-11-01T12:06:24Z</time>
      </trkpt>
      <trkpt lat="38.9965260" lon="-3.9184900">
        <ele>628.1</ele>
        <time>2022-11-01T12:06:34Z</time>
      </trkpt>
      <trkpt lat="38.9966470" lon="-3.9184720">
        <ele>628.2</ele>
        <time>2022-11-01T12:06:44Z</time>
      </trkpt>
      <trkpt lat="38.9967580" lon="-3.9184820">
        <ele>628.3</ele>
        <time>2022-11-01T12:06:53Z</time>
      </trkpt>
      <trkpt lat="38.9968390" lon="-3.9184740">
        <ele>628.5</ele>
        <time>2022-11-01T12:07:01Z</time>
      </trkpt>
      <trkpt lat="38.9969870" lon="-3.9184720">
        <ele>628.8</ele>
        <time>2022-11-01T12:07:13Z</time>
      </trkpt>
      <trkpt lat="38.9971190" lon="-3.9184730">
        <ele>629.0</ele>
        <time>2022-11-01T12:07:23Z</time>
      </trkpt>
      <trkpt lat="38.9972300" lon="-3.9184640">
        <ele>629.2</ele>
        <time>2022-11-01T12:07:33Z</time>
      </trkpt>
      <trkpt lat="38.9973270" lon="-3.9184640">
        <ele>629.4</ele>
        <time>2022-11-01T12:07:42Z</time>
      </trkpt>
      <trkpt lat="38.9974940" lon="-3.9184680">
        <ele>629.6</ele>
        <time>2022-11-01T12:07:56Z</time>
      </trkpt>
      <trkpt lat="38.9975960" lon="-3.9184770">
        <ele>629.7</ele>
        <time>2022-11-01T12:08:05Z</time>
      </trkpt>
      <trkpt lat="38.9977500" lon="-3.9184730">
        <ele>629.7</ele>
        <time>2022-11-01T12:08:18Z</time>
      </trkpt>
      <trkpt lat="38.9977770" lon="-3.9184830">
        <ele>629.6</ele>
        <time>2022-11-01T12:08:23Z</time>
      </trkpt>
      <trkpt lat="38.9978000" lon="-3.9184910">
        <ele>629.6</ele>
        <time>2022-11-01T12:08:26Z</time>
      </trkpt>
      <trkpt lat="38.9978100" lon="-3.9184970">
        <ele>629.6</ele>
        <time>2022-11-01T12:08:27Z</time>
      </trkpt>
      <trkpt lat="38.9979180" lon="-3.9185130">
        <ele>629.5</ele>
        <time>2022-11-01T12:08:36Z</time>
      </trkpt>
      <trkpt lat="38.9981030" lon="-3.9185160">
        <ele>629.3</ele>
        <time>2022-11-01T12:08:51Z</time>
      </trkpt>
      <trkpt lat="38.9981140" lon="-3.9185150">
        <ele>629.3</ele>
        <time>2022-11-01T12:08:52Z</time>
      </trkpt>
      <trkpt lat="38.9982850" lon="-3.9185200">
        <ele>629.1</ele>
        <time>2022-11-01T12:09:06Z</time>
      </trkpt>
      <trkpt lat="38.9984000" lon="-3.9185490">
        <ele>628.9</ele>
        <time>2022-11-01T12:09:16Z</time>
      </trkpt>
      <trkpt lat="38.9985400" lon="-3.9185830">
        <ele>628.6</ele>
        <time>2022-11-01T12:09:27Z</time>
      </trkpt>
      <trkpt lat="38.9986730" lon="-3.9186210">
        <ele>628.4</ele>
        <time>2022-11-01T12:09:38Z</time>
      </trkpt>
      <trkpt lat="38.9987950" lon="-3.9186340">
        <ele>628.3</ele>
        <time>2022-11-01T12:09:48Z</time>
      </trkpt>
      <trkpt lat="38.9989530" lon="-3.9186610">
        <ele>628.1</ele>
        <time>2022-11-01T12:10:01Z</time>
      </trkpt>
      <trkpt lat="38.9991360" lon="-3.9186910">
        <ele>628.1</ele>
        <time>2022-11-01T12:10:16Z</time>
      </trkpt>
      <trkpt lat="38.9992460" lon="-3.9187050">
        <ele>628.0</ele>
        <time>2022-11-01T12:10:25Z</time>
      </trkpt>
      <trkpt lat="38.9992660" lon="-3.9187150">
        <ele>628.0</ele>
        <time>2022-11-01T12:10:27Z</time>
      </trkpt>
      <trkpt lat="38.9993580" lon="-3.9187110">
        <ele>628.1</ele>
        <time>2022-11-01T12:10:36Z</time>
      </trkpt>
      <trkpt lat="38.9994840" lon="-3.9187040">
        <ele>628.1</ele>
        <time>2022-11-01T12:10:46Z</time>
      </trkpt>
      <trkpt lat="38.9995930" lon="-3.9187180">
        <ele>628.2</ele>
        <time>2022-11-01T12:10:55Z</time>
      </trkpt>
      <trkpt lat="38.9997620" lon="-3.9187210">
        <ele>628.3</ele>
        <time>2022-11-01T12:11:09Z</time>
      </trkpt>
      <trkpt lat="38.9999100" lon="-3.9187350">
        <ele>628.5</ele>
        <time>2022-11-01T12:11:22Z</time>
      </trkpt>
      <trkpt lat="39.0000640" lon="-3.9187490">
        <ele>628.6</ele>
        <time>2022-11-01T12:11:34Z</time>
      </trkpt>
      <trkpt lat="39.0001700" lon="-3.9187620">
        <ele>628.7</ele>
        <time>2022-11-01T12:11:44Z</time>
      </trkpt>
      <trkpt lat="39.0003020" lon="-3.9187950">
        <ele>628.8</ele>
        <time>2022-11-01T12:11:55Z</time>
      </trkpt>
      <trkpt lat="39.0004540" lon="-3.9188370">
        <ele>628.9</ele>
        <time>2022-11-01T12:12:07Z</time>
      </trkpt>
      <trkpt lat="39.0005420" lon="-3.9188600">
        <ele>628.9</ele>
        <time>2022-11-01T12:12:15Z</time>
      </trkpt>
      <trkpt lat="39.0006640" lon="-3.9189000">
        <ele>628.9</ele>
        <time>2022-11-01T12:12:25Z</time>
      </trkpt>
      <trkpt lat="39.0007820" lon="-3.9189340">
        <ele>628.9</ele>
        <time>2022-11-01T12:12:36Z</time>
      </trkpt>
      <trkpt lat="39.0009150" lon="-3.9189540">
        <ele>628.9</ele>
        <time>2022-11-01T12:12:46Z</time>
      </trkpt>
      <trkpt lat="39.0010480" lon="-3.9189960">
        <ele>628.9</ele>
        <time>2022-11-01T12:12:57Z</time>
      </trkpt>
      <trkpt lat="39.0012130" lon="-3.9190410">
        <ele>628.8</ele>
        <time>2022-11-01T12:13:09Z</time>
      </trkpt>
      <trkpt lat="39.0013440" lon="-3.9190750">
        <ele>628.7</ele>
        <time>2022-11-01T12:13:20Z</time>
      </trkpt>
      <trkpt lat="39.0014830" lon="-3.9191060">
        <ele>628.7</ele>
        <time>2022-11-01T12:13:31Z</time>
      </trkpt>
      <trkpt lat="39.0015950" lon="-3.9191120">
        <ele>628.6</ele>
        <time>2022-11-01T12:13:41Z</time>
      </trkpt>
      <trkpt lat="39.0017710" lon="-3.9191320">
        <ele>628.6</ele>
        <time>2022-11-01T12:13:54Z</time>
      </trkpt>
      <trkpt lat="39.0018950" lon="-3.9191430">
        <ele>628.6</ele>
        <time>2022-11-01T12:14:04Z</time>
      </trkpt>
      <trkpt lat="39.0020640" lon="-3.9191560">
        <ele>628.6</ele>
        <time>2022-11-01T12:14:16Z</time>
      </trkpt>
      <trkpt lat="39.0022420" lon="-3.9191600">
        <ele>628.5</ele>
        <time>2022-11-01T12:14:31Z</time>
      </trkpt>
      <trkpt lat="39.0024010" lon="-3.9191440">
        <ele>628.5</ele>
        <time>2022-11-01T12:14:44Z</time>
      </trkpt>
      <trkpt lat="39.0025440" lon="-3.9191300">
        <ele>628.4</ele>
        <time>2022-11-01T12:14:56Z</time>
      </trkpt>
      <trkpt lat="39.0027060" lon="-3.9191020">
        <ele>628.4</ele>
        <time>2022-11-01T12:15:09Z</time>
      </trkpt>
      <trkpt lat="39.0028650" lon="-3.9190900">
        <ele>628.4</ele>
        <time>2022-11-01T12:15:20Z</time>
      </trkpt>
      <trkpt lat="39.0030090" lon="-3.9190710">
        <ele>628.4</ele>
        <time>2022-11-01T12:15:32Z</time>
      </trkpt>
      <trkpt lat="39.0031380" lon="-3.9190500">
        <ele>628.3</ele>
        <time>2022-11-01T12:15:42Z</time>
      </trkpt>
      <trkpt lat="39.0032760" lon="-3.9190200">
        <ele>628.2</ele>
        <time>2022-11-01T12:15:54Z</time>
      </trkpt>
      <trkpt lat="39.0034150" lon="-3.9189840">
        <ele>628.2</ele>
        <time>2022-11-01T12:16:05Z</time>
      </trkpt>
      <trkpt lat="39.0035330" lon="-3.9189600">
        <ele>628.1</ele>
        <time>2022-11-01T12:16:15Z</time>
      </trkpt>
      <trkpt lat="39.0036830" lon="-3.9189140">
        <ele>628.1</ele>
        <time>2022-11-01T12:16:27Z</time>
      </trkpt>
      <trkpt lat="39.0038400" lon="-3.9188710">
        <ele>628.0</ele>
        <time>2022-11-01T12:16:39Z</time>
      </trkpt>
      <trkpt lat="39.0039950" lon="-3.9188340">
        <ele>627.9</ele>
        <time>2022-11-01T12:16:52Z</time>
      </trkpt>
      <trkpt lat="39.0041280" lon="-3.9187860">
        <ele>627.8</ele>
        <time>2022-11-01T12:17:03Z</time>
      </trkpt>
      <trkpt lat="39.0043030" lon="-3.9187360">
        <ele>627.8</ele>
        <time>2022-11-01T12:17:17Z</time>
      </trkpt>
      <trkpt lat="39.0044460" lon="-3.9187040">
        <ele>627.7</ele>
        <time>2022-11-01T12:17:28Z</time>
      </trkpt>
      <trkpt lat="39.0046100" lon="-3.9186680">
        <ele>627.7</ele>
        <time>2022-11-01T12:17:42Z</time>
      </trkpt>
      <trkpt lat="39.0047860" lon="-3.9186520">
        <ele>627.6</ele>
        <time>2022-11-01T12:17:54Z</time>
      </trkpt>
      <trkpt lat="39.0049450" lon="-3.9186460">
        <ele>627.4</ele>
        <time>2022-11-01T12:18:07Z</time>
      </trkpt>
      <trkpt lat="39.0051290" lon="-3.9186440">
        <ele>627.3</ele>
        <time>2022-11-01T12:18:20Z</time>
      </trkpt>
      <trkpt lat="39.0051420" lon="-3.9186460">
        <ele>627.3</ele>
        <time>2022-11-01T12:18:21Z</time>
      </trkpt>
      <trkpt lat="39.0052200" lon="-3.9186490">
        <ele>627.3</ele>
        <time>2022-11-01T12:18:29Z</time>
      </trkpt>
      <trkpt lat="39.0054120" lon="-3.9186570">
        <ele>627.2</ele>
        <time>2022-11-01T12:18:42Z</time>
      </trkpt>
      <trkpt lat="39.0055350" lon="-3.9186640">
        <ele>627.1</ele>
        <time>2022-11-01T12:18:52Z</time>
      </trkpt>
      <trkpt lat="39.0056930" lon="-3.9186510">
        <ele>627.0</ele>
        <time>2022-11-01T12:19:04Z</time>
      </trkpt>
      <trkpt lat="39.0058290" lon="-3.9186530">
        <ele>627.1</ele>
        <time>2022-11-01T12:19:14Z</time>
      </trkpt>
      <trkpt lat="39.0059250" lon="-3.9186510">
        <ele>627.1</ele>
        <time>2022-11-01T12:19:22Z</time>
      </trkpt>
      <trkpt lat="39.0059980" lon="-3.9186640">
        <ele>627.1</ele>
        <time>2022-11-01T12:19:29Z</time>
      </trkpt>
      <trkpt lat="39.0060080" lon="-3.9186610">
        <ele>627.1</ele>
        <time>2022-11-01T12:19:30Z</time>
      </trkpt>
      <trkpt lat="39.0061190" lon="-3.9186790">
        <ele>627.2</ele>
        <time>2022-11-01T12:19:39Z</time>
      </trkpt>
      <trkpt lat="39.0061970" lon="-3.9186970">
        <ele>627.2</ele>
        <time>2022-11-01T12:19:46Z</time>
      </trkpt>
      <trkpt lat="39.0061970" lon="-3.9186970">
        <ele>627.2</ele>
        <time>2022-11-01T12:19:54Z</time>
      </trkpt>
      <trkpt lat="39.0061900" lon="-3.9186960">
        <ele>627.2</ele>
        <time>2022-11-01T12:20:07Z</time>
      </trkpt>
      <trkpt lat="39.0062620" lon="-3.9187010">
        <ele>627.2</ele>
        <time>2022-11-01T12:21:04Z</time>
      </trkpt>
      <trkpt lat="39.0064380" lon="-3.9187310">
        <ele>627.4</ele>
        <time>2022-11-01T12:21:17Z</time>
      </trkpt>
      <trkpt lat="39.0065900" lon="-3.9187380">
        <ele>627.6</ele>
        <time>2022-11-01T12:21:28Z</time>
      </trkpt>
      <trkpt lat="39.0067780" lon="-3.9187660">
        <ele>627.7</ele>
        <time>2022-11-01T12:21:43Z</time>
      </trkpt>
      <trkpt lat="39.0069340" lon="-3.9187720">
        <ele>627.8</ele>
        <time>2022-11-01T12:21:55Z</time>
      </trkpt>
      <trkpt lat="39.0070820" lon="-3.9187970">
        <ele>627.9</ele>
        <time>2022-11-01T12:22:06Z</time>
      </trkpt>
      <trkpt lat="39.0072100" lon="-3.9188100">
        <ele>627.9</ele>
        <time>2022-11-01T12:22:17Z</time>
      </trkpt>
      <trkpt lat="39.0073670" lon="-3.9188420">
        <ele>628.0</ele>
        <time>2022-11-01T12:22:29Z</time>
      </trkpt>
      <trkpt lat="39.0074960" lon="-3.9188760">
        <ele>628.1</ele>
        <time>2022-11-01T12:22:41Z</time>
      </trkpt>
      <trkpt lat="39.0076810" lon="-3.9189310">
        <ele>628.2</ele>
        <time>2022-11-01T12:22:55Z</time>
      </trkpt>
      <trkpt lat="39.0076960" lon="-3.9189350">
        <ele>628.3</ele>
        <time>2022-11-01T12:22:56Z</time>
      </trkpt>
      <trkpt lat="39.0078410" lon="-3.9189850">
        <ele>628.4</ele>
        <time>2022-11-01T12:23:08Z</time>
      </trkpt>
      <trkpt lat="39.0080160" lon="-3.9190400">
        <ele>628.5</ele>
        <time>2022-11-01T12:23:22Z</time>
      </trkpt>
      <trkpt lat="39.0081690" lon="-3.9190850">
        <ele>628.6</ele>
        <time>2022-11-01T12:23:34Z</time>
      </trkpt>
      <trkpt lat="39.0082680" lon="-3.9191140">
        <ele>628.7</ele>
        <time>2022-11-01T12:23:42Z</time>
      </trkpt>
      <trkpt lat="39.0084180" lon="-3.9191550">
        <ele>628.8</ele>
        <time>2022-11-01T12:23:54Z</time>
      </trkpt>
      <trkpt lat="39.0085270" lon="-3.9191900">
        <ele>628.9</ele>
        <time>2022-11-01T12:24:04Z</time>
      </trkpt>
      <trkpt lat="39.0086030" lon="-3.9192190">
        <ele>628.9</ele>
        <time>2022-11-01T12:24:11Z</time>
      </trkpt>
      <trkpt lat="39.0086860" lon="-3.9192710">
        <ele>628.9</ele>
        <time>2022-11-01T12:24:18Z</time>
      </trkpt>
      <trkpt lat="39.0086940" lon="-3.9192820">
        <ele>628.9</ele>
        <time>2022-11-01T12:24:19Z</time>
      </trkpt>
      <trkpt lat="39.0087320" lon="-3.9193110">
        <ele>628.9</ele>
        <time>2022-11-01T12:24:23Z</time>
      </trkpt>
      <trkpt lat="39.0088620" lon="-3.9193530">
        <ele>628.8</ele>
        <time>2022-11-01T12:24:33Z</time>
      </trkpt>
      <trkpt lat="39.0089410" lon="-3.9194020">
        <ele>628.6</ele>
        <time>2022-11-01T12:24:40Z</time>
      </trkpt>
      <trkpt lat="39.0090630" lon="-3.9194470">
        <ele>628.3</ele>
        <time>2022-11-01T12:24:50Z</time>
      </trkpt>
      <trkpt lat="39.0091870" lon="-3.9195070">
        <ele>628.0</ele>
        <time>2022-11-01T12:24:59Z</time>
      </trkpt>
      <trkpt lat="39.0093120" lon="-3.9195380">
        <ele>627.9</ele>
        <time>2022-11-01T12:25:10Z</time>
      </trkpt>
      <trkpt lat="39.0094600" lon="-3.9195960">
        <ele>627.7</ele>
        <time>2022-11-01T12:25:22Z</time>
      </trkpt>
      <trkpt lat="39.0096040" lon="-3.9196410">
        <ele>627.5</ele>
        <time>2022-11-01T12:25:34Z</time>
      </trkpt>
      <trkpt lat="39.0097240" lon="-3.9196910">
        <ele>627.4</ele>
        <time>2022-11-01T12:25:44Z</time>
      </trkpt>
      <trkpt lat="39.0098530" lon="-3.9197110">
        <ele>627.3</ele>
        <time>2022-11-01T12:25:54Z</time>
      </trkpt>
      <trkpt lat="39.0099600" lon="-3.9197510">
        <ele>627.1</ele>
        <time>2022-11-01T12:26:04Z</time>
      </trkpt>
      <trkpt lat="39.0100860" lon="-3.9198070">
        <ele>627.0</ele>
        <time>2022-11-01T12:26:14Z</time>
      </trkpt>
      <trkpt lat="39.0102260" lon="-3.9198440">
        <ele>626.9</ele>
        <time>2022-11-01T12:26:25Z</time>
      </trkpt>
      <trkpt lat="39.0103550" lon="-3.9198830">
        <ele>626.8</ele>
        <time>2022-11-01T12:26:36Z</time>
      </trkpt>
      <trkpt lat="39.0104900" lon="-3.9199450">
        <ele>626.7</ele>
        <time>2022-11-01T12:26:47Z</time>
      </trkpt>
      <trkpt lat="39.0106430" lon="-3.9200120">
        <ele>626.5</ele>
        <time>2022-11-01T12:27:00Z</time>
      </trkpt>
      <trkpt lat="39.0107640" lon="-3.9200580">
        <ele>626.5</ele>
        <time>2022-11-01T12:27:09Z</time>
      </trkpt>
      <trkpt lat="39.0108460" lon="-3.9200930">
        <ele>626.4</ele>
        <time>2022-11-01T12:27:17Z</time>
      </trkpt>
      <trkpt lat="39.0109820" lon="-3.9201120">
        <ele>626.3</ele>
        <time>2022-11-01T12:27:27Z</time>
      </trkpt>
      <trkpt lat="39.0111450" lon="-3.9201360">
        <ele>626.3</ele>
        <time>2022-11-01T12:27:40Z</time>
      </trkpt>
      <trkpt lat="39.0113140" lon="-3.9201860">
        <ele>626.2</ele>
        <time>2022-11-01T12:27:53Z</time>
      </trkpt>
      <trkpt lat="39.0114170" lon="-3.9201700">
        <ele>626.1</ele>
        <time>2022-11-01T12:28:02Z</time>
      </trkpt>
      <trkpt lat="39.0115380" lon="-3.9201320">
        <ele>626.1</ele>
        <time>2022-11-01T12:28:11Z</time>
      </trkpt>
      <trkpt lat="39.0116580" lon="-3.9200760">
        <ele>626.0</ele>
        <time>2022-11-01T12:28:22Z</time>
      </trkpt>
      <trkpt lat="39.0117710" lon="-3.9200120">
        <ele>626.0</ele>
        <time>2022-11-01T12:28:31Z</time>
      </trkpt>
      <trkpt lat="39.0118510" lon="-3.9199300">
        <ele>626.0</ele>
        <time>2022-11-01T12:28:41Z</time>
      </trkpt>
      <trkpt lat="39.0119580" lon="-3.9198180">
        <ele>626.1</ele>
        <time>2022-11-01T12:28:53Z</time>
      </trkpt>
      <trkpt lat="39.0120340" lon="-3.9197320">
        <ele>626.1</ele>
        <time>2022-11-01T12:29:02Z</time>
      </trkpt>
      <trkpt lat="39.0121630" lon="-3.9196060">
        <ele>626.2</ele>
        <time>2022-11-01T12:29:15Z</time>
      </trkpt>
      <trkpt lat="39.0122760" lon="-3.9195020">
        <ele>626.3</ele>
        <time>2022-11-01T12:29:26Z</time>
      </trkpt>
      <trkpt lat="39.0124260" lon="-3.9193860">
        <ele>626.4</ele>
        <time>2022-11-01T12:29:40Z</time>
      </trkpt>
      <trkpt lat="39.0125730" lon="-3.9192930">
        <ele>626.3</ele>
        <time>2022-11-01T12:29:53Z</time>
      </trkpt>
      <trkpt lat="39.0127280" lon="-3.9191800">
        <ele>626.2</ele>
        <time>2022-11-01T12:30:06Z</time>
      </trkpt>
      <trkpt lat="39.0128350" lon="-3.9190980">
        <ele>626.2</ele>
        <time>2022-11-01T12:30:17Z</time>
      </trkpt>
      <trkpt lat="39.0129660" lon="-3.9190020">
        <ele>626.2</ele>
        <time>2022-11-01T12:30:28Z</time>
      </trkpt>
      <trkpt lat="39.0129880" lon="-3.9189750">
        <ele>626.2</ele>
        <time>2022-11-01T12:30:31Z</time>
      </trkpt>
      <trkpt lat="39.0130220" lon="-3.9189390">
        <ele>626.2</ele>
        <time>2022-11-01T12:30:35Z</time>
      </trkpt>
      <trkpt lat="39.0131000" lon="-3.9188220">
        <ele>626.2</ele>
        <time>2022-11-01T12:30:44Z</time>
      </trkpt>
      <trkpt lat="39.0132000" lon="-3.9187380">
        <ele>626.2</ele>
        <time>2022-11-01T12:30:54Z</time>
      </trkpt>
      <trkpt lat="39.0132360" lon="-3.9187070">
        <ele>626.2</ele>
        <time>2022-11-01T12:30:57Z</time>
      </trkpt>
      <trkpt lat="39.0133090" lon="-3.9186590">
        <ele>626.2</ele>
        <time>2022-11-01T12:31:03Z</time>
      </trkpt>
      <trkpt lat="39.0133790" lon="-3.9185970">
        <ele>626.2</ele>
        <time>2022-11-01T12:31:11Z</time>
      </trkpt>
      <trkpt lat="39.0134730" lon="-3.9185080">
        <ele>626.2</ele>
        <time>2022-11-01T12:31:20Z</time>
      </trkpt>
      <trkpt lat="39.0135630" lon="-3.9184430">
        <ele>626.1</ele>
        <time>2022-11-01T12:31:28Z</time>
      </trkpt>
      <trkpt lat="39.0136590" lon="-3.9183540">
        <ele>626.0</ele>
        <time>2022-11-01T12:31:38Z</time>
      </trkpt>
      <trkpt lat="39.0138120" lon="-3.9182210">
        <ele>625.9</ele>
        <time>2022-11-01T12:31:52Z</time>
      </trkpt>
      <trkpt lat="39.0139060" lon="-3.9181230">
        <ele>625.9</ele>
        <time>2022-11-01T12:32:02Z</time>
      </trkpt>
      <trkpt lat="39.0140120" lon="-3.9180140">
        <ele>625.8</ele>
        <time>2022-11-01T12:32:12Z</time>
      </trkpt>
      <trkpt lat="39.0141360" lon="-3.9179060">
        <ele>625.8</ele>
        <time>2022-11-01T12:32:25Z</time>
      </trkpt>
      <trkpt lat="39.0142380" lon="-3.9177680">
        <ele>625.8</ele>
        <time>2022-11-01T12:32:36Z</time>
      </trkpt>
      <trkpt lat="39.0143550" lon="-3.9176270">
        <ele>625.9</ele>
        <time>2022-11-01T12:32:49Z</time>
      </trkpt>
      <trkpt lat="39.0144270" lon="-3.9175080">
        <ele>626.0</ele>
        <time>2022-11-01T12:32:58Z</time>
      </trkpt>
      <trkpt lat="39.0145080" lon="-3.9173710">
        <ele>626.2</ele>
        <time>2022-11-01T12:33:09Z</time>
      </trkpt>
      <trkpt lat="39.0145950" lon="-3.9172440">
        <ele>626.4</ele>
        <time>2022-11-01T12:33:19Z</time>
      </trkpt>
      <trkpt lat="39.0146870" lon="-3.9171270">
        <ele>626.5</ele>
        <time>2022-11-01T12:33:29Z</time>
      </trkpt>
      <trkpt lat="39.0148040" lon="-3.9169960">
        <ele>626.7</ele>
        <time>2022-11-01T12:33:41Z</time>
      </trkpt>
      <trkpt lat="39.0149460" lon="-3.9168510">
        <ele>626.9</ele>
        <time>2022-11-01T12:33:55Z</time>
      </trkpt>
      <trkpt lat="39.0150660" lon="-3.9167300">
        <ele>627.1</ele>
        <time>2022-11-01T12:34:07Z</time>
      </trkpt>
      <trkpt lat="39.0151740" lon="-3.9166240">
        <ele>627.2</ele>
        <time>2022-11-01T12:34:17Z</time>
      </trkpt>
      <trkpt lat="39.0152870" lon="-3.9165010">
        <ele>627.3</ele>
        <time>2022-11-01T12:34:29Z</time>
      </trkpt>
      <trkpt lat="39.0153730" lon="-3.9163940">
        <ele>627.4</ele>
        <time>2022-11-01T12:34:38Z</time>
      </trkpt>
      <trkpt lat="39.0154480" lon="-3.9163090">
        <ele>627.5</ele>
        <time>2022-11-01T12:34:46Z</time>
      </trkpt>
      <trkpt lat="39.0156120" lon="-3.9161870">
        <ele>627.5</ele>
        <time>2022-11-01T12:35:01Z</time>
      </trkpt>
      <trkpt lat="39.0157110" lon="-3.9161390">
        <ele>627.5</ele>
        <time>2022-11-01T12:35:09Z</time>
      </trkpt>
      <trkpt lat="39.0158150" lon="-3.9161080">
        <ele>627.6</ele>
        <time>2022-11-01T12:35:18Z</time>
      </trkpt>
      <trkpt lat="39.0159990" lon="-3.9160660">
        <ele>627.6</ele>
        <time>2022-11-01T12:35:31Z</time>
      </trkpt>
      <trkpt lat="39.0161100" lon="-3.9160570">
        <ele>627.5</ele>
        <time>2022-11-01T12:35:40Z</time>
      </trkpt>
      <trkpt lat="39.0162520" lon="-3.9160420">
        <ele>627.5</ele>
        <time>2022-11-01T12:35:51Z</time>
      </trkpt>
      <trkpt lat="39.0163540" lon="-3.9159960">
        <ele>627.5</ele>
        <time>2022-11-01T12:36:01Z</time>
      </trkpt>
      <trkpt lat="39.0165040" lon="-3.9159270">
        <ele>627.5</ele>
        <time>2022-11-01T12:36:13Z</time>
      </trkpt>
      <trkpt lat="39.0165520" lon="-3.9159070">
        <ele>627.5</ele>
        <time>2022-11-01T12:36:18Z</time>
      </trkpt>
      <trkpt lat="39.0165670" lon="-3.9158950">
        <ele>627.5</ele>
        <time>2022-11-01T12:36:20Z</time>
      </trkpt>
      <trkpt lat="39.0166570" lon="-3.9158460">
        <ele>627.5</ele>
        <time>2022-11-01T12:36:28Z</time>
      </trkpt>
      <trkpt lat="39.0166730" lon="-3.9158470">
        <ele>627.5</ele>
        <time>2022-11-01T12:36:29Z</time>
      </trkpt>
      <trkpt lat="39.0167800" lon="-3.9158110">
        <ele>627.6</ele>
        <time>2022-11-01T12:36:37Z</time>
      </trkpt>
      <trkpt lat="39.0168950" lon="-3.9157250">
        <ele>627.7</ele>
        <time>2022-11-01T12:36:47Z</time>
      </trkpt>
      <trkpt lat="39.0169870" lon="-3.9156790">
        <ele>627.7</ele>
        <time>2022-11-01T12:36:56Z</time>
      </trkpt>
      <trkpt lat="39.0171190" lon="-3.9156210">
        <ele>627.8</ele>
        <time>2022-11-01T12:37:06Z</time>
      </trkpt>
      <trkpt lat="39.0171960" lon="-3.9155660">
        <ele>627.9</ele>
        <time>2022-11-01T12:37:14Z</time>
      </trkpt>
      <trkpt lat="39.0173430" lon="-3.9155010">
        <ele>628.0</ele>
        <time>2022-11-01T12:37:26Z</time>
      </trkpt>
      <trkpt lat="39.0174550" lon="-3.9154720">
        <ele>628.1</ele>
        <time>2022-11-01T12:37:36Z</time>
      </trkpt>
      <trkpt lat="39.0175110" lon="-3.9154630">
        <ele>628.2</ele>
        <time>2022-11-01T12:37:44Z</time>
      </trkpt>
      <trkpt lat="39.0176200" lon="-3.9154590">
        <ele>628.3</ele>
        <time>2022-11-01T12:37:52Z</time>
      </trkpt>
      <trkpt lat="39.0177680" lon="-3.9154570">
        <ele>628.4</ele>
        <time>2022-11-01T12:38:03Z</time>
      </trkpt>
      <trkpt lat="39.0179100" lon="-3.9154240">
        <ele>628.7</ele>
        <time>2022-11-01T12:38:14Z</time>
      </trkpt>
      <trkpt lat="39.0180510" lon="-3.9154210">
        <ele>629.0</ele>
        <time>2022-11-01T12:38:25Z</time>
      </trkpt>
      <trkpt lat="39.0181570" lon="-3.9154520">
        <ele>629.3</ele>
        <time>2022-11-01T12:38:35Z</time>
      </trkpt>
      <trkpt lat="39.0182810" lon="-3.9155120">
        <ele>629.7</ele>
        <time>2022-11-01T12:38:45Z</time>
      </trkpt>
      <trkpt lat="39.0184100" lon="-3.9155640">
        <ele>630.0</ele>
        <time>2022-11-01T12:38:56Z</time>
      </trkpt>
      <trkpt lat="39.0185810" lon="-3.9156300">
        <ele>630.6</ele>
        <time>2022-11-01T12:39:08Z</time>
      </trkpt>
      <trkpt lat="39.0187110" lon="-3.9156450">
        <ele>631.1</ele>
        <time>2022-11-01T12:39:20Z</time>
      </trkpt>
      <trkpt lat="39.0187100" lon="-3.9156450">
        <ele>631.1</ele>
        <time>2022-11-01T12:39:21Z</time>
      </trkpt>
      <trkpt lat="39.0187250" lon="-3.9156410">
        <ele>631.1</ele>
        <time>2022-11-01T12:39:24Z</time>
      </trkpt>
      <trkpt lat="39.0188060" lon="-3.9156420">
        <ele>631.4</ele>
        <time>2022-11-01T12:39:31Z</time>
      </trkpt>
      <trkpt lat="39.0189100" lon="-3.9156230">
        <ele>631.8</ele>
        <time>2022-11-01T12:39:41Z</time>
      </trkpt>
      <trkpt lat="39.0190200" lon="-3.9156050">
        <ele>632.2</ele>
        <time>2022-11-01T12:39:50Z</time>
      </trkpt>
      <trkpt lat="39.0191300" lon="-3.9155910">
        <ele>632.7</ele>
        <time>2022-11-01T12:39:59Z</time>
      </trkpt>
      <trkpt lat="39.0192800" lon="-3.9155660">
        <ele>633.3</ele>
        <time>2022-11-01T12:40:11Z</time>
      </trkpt>
      <trkpt lat="39.0193880" lon="-3.9155500">
        <ele>633.8</ele>
        <time>2022-11-01T12:40:21Z</time>
      </trkpt>
      <trkpt lat="39.0195120" lon="-3.9155440">
        <ele>634.4</ele>
        <time>2022-11-01T12:40:30Z</time>
      </trkpt>
      <trkpt lat="39.0196350" lon="-3.9155300">
        <ele>634.9</ele>
        <time>2022-11-01T12:40:41Z</time>
      </trkpt>
      <trkpt lat="39.0197620" lon="-3.9155350">
        <ele>635.5</ele>
        <time>2022-11-01T12:40:51Z</time>
      </trkpt>
      <trkpt lat="39.0199160" lon="-3.9155270">
        <ele>636.2</ele>
        <time>2022-11-01T12:41:03Z</time>
      </trkpt>
      <trkpt lat="39.0200380" lon="-3.9155160">
        <ele>636.8</ele>
        <time>2022-11-01T12:41:13Z</time>
      </trkpt>
      <trkpt lat="39.0201900" lon="-3.9154950">
        <ele>637.5</ele>
        <time>2022-11-01T12:41:26Z</time>
      </trkpt>
      <trkpt lat="39.0203730" lon="-3.9154740">
        <ele>638.5</ele>
        <time>2022-11-01T12:41:41Z</time>
      </trkpt>
      <trkpt lat="39.0203880" lon="-3.9154750">
        <ele>638.6</ele>
        <time>2022-11-01T12:41:42Z</time>
      </trkpt>
      <trkpt lat="39.0205080" lon="-3.9154640">
        <ele>639.3</ele>
        <time>2022-11-01T12:41:52Z</time>
      </trkpt>
      <trkpt lat="39.0206100" lon="-3.9154060">
        <ele>639.8</ele>
        <time>2022-11-01T12:42:02Z</time>
      </trkpt>
      <trkpt lat="39.0207390" lon="-3.9153100">
        <ele>640.6</ele>
        <time>2022-11-01T12:42:14Z</time>
      </trkpt>
      <trkpt lat="39.0208180" lon="-3.9152430">
        <ele>641.0</ele>
        <time>2022-11-01T12:42:23Z</time>
      </trkpt>
      <trkpt lat="39.0209420" lon="-3.9151510">
        <ele>641.7</ele>
        <time>2022-11-01T12:42:34Z</time>
      </trkpt>
      <trkpt lat="39.0210120" lon="-3.9150920">
        <ele>642.2</ele>
        <time>2022-11-01T12:42:41Z</time>
      </trkpt>
      <trkpt lat="39.0211400" lon="-3.9150040">
        <ele>642.8</ele>
        <time>2022-11-01T12:42:52Z</time>
      </trkpt>
      <trkpt lat="39.0212340" lon="-3.9149400">
        <ele>643.6</ele>
        <time>2022-11-01T12:43:00Z</time>
      </trkpt>
      <trkpt lat="39.0212530" lon="-3.9149300">
        <ele>643.8</ele>
        <time>2022-11-01T12:43:02Z</time>
      </trkpt>
      <trkpt lat="39.0213670" lon="-3.9148520">
        <ele>644.4</ele>
        <time>2022-11-01T12:43:13Z</time>
      </trkpt>
      <trkpt lat="39.0214720" lon="-3.9147930">
        <ele>645.0</ele>
        <time>2022-11-01T12:43:23Z</time>
      </trkpt>
      <trkpt lat="39.0215900" lon="-3.9147230">
        <ele>646.1</ele>
        <time>2022-11-01T12:43:32Z</time>
      </trkpt>
      <trkpt lat="39.0216830" lon="-3.9146770">
        <ele>646.7</ele>
        <time>2022-11-01T12:43:40Z</time>
      </trkpt>
      <trkpt lat="39.0218050" lon="-3.9145840">
        <ele>647.9</ele>
        <time>2022-11-01T12:43:52Z</time>
      </trkpt>
      <trkpt lat="39.0219280" lon="-3.9145260">
        <ele>649.0</ele>
        <time>2022-11-01T12:44:02Z</time>
      </trkpt>
      <trkpt lat="39.0220630" lon="-3.9144580">
        <ele>650.2</ele>
        <time>2022-11-01T12:44:13Z</time>
      </trkpt>
      <trkpt lat="39.0222080" lon="-3.9143560">
        <ele>651.2</ele>
        <time>2022-11-01T12:44:26Z</time>
      </trkpt>
      <trkpt lat="39.0223160" lon="-3.9142730">
        <ele>651.9</ele>
        <time>2022-11-01T12:44:38Z</time>
      </trkpt>
      <trkpt lat="39.0223970" lon="-3.9142200">
        <ele>652.7</ele>
        <time>2022-11-01T12:44:45Z</time>
      </trkpt>
      <trkpt lat="39.0224830" lon="-3.9141690">
        <ele>653.3</ele>
        <time>2022-11-01T12:44:53Z</time>
      </trkpt>
      <trkpt lat="39.0225830" lon="-3.9141000">
        <ele>654.2</ele>
        <time>2022-11-01T12:45:01Z</time>
      </trkpt>
      <trkpt lat="39.0226830" lon="-3.9140110">
        <ele>655.0</ele>
        <time>2022-11-01T12:45:12Z</time>
      </trkpt>
      <trkpt lat="39.0227770" lon="-3.9139440">
        <ele>655.7</ele>
        <time>2022-11-01T12:45:23Z</time>
      </trkpt>
      <trkpt lat="39.0228530" lon="-3.9138880">
        <ele>656.2</ele>
        <time>2022-11-01T12:45:31Z</time>
      </trkpt>
      <trkpt lat="39.0229410" lon="-3.9137970">
        <ele>656.8</ele>
        <time>2022-11-01T12:45:42Z</time>
      </trkpt>
      <trkpt lat="39.0230000" lon="-3.9137810">
        <ele>657.2</ele>
        <time>2022-11-01T12:45:49Z</time>
      </trkpt>
      <trkpt lat="39.0230180" lon="-3.9137640">
        <ele>657.3</ele>
        <time>2022-11-01T12:45:50Z</time>
      </trkpt>
      <trkpt lat="39.0230700" lon="-3.9136910">
        <ele>657.8</ele>
        <time>2022-11-01T12:45:57Z</time>
      </trkpt>
      <trkpt lat="39.0231410" lon="-3.9136210">
        <ele>658.5</ele>
        <time>2022-11-01T12:46:07Z</time>
      </trkpt>
      <trkpt lat="39.0232190" lon="-3.9135700">
        <ele>659.3</ele>
        <time>2022-11-01T12:46:14Z</time>
      </trkpt>
      <trkpt lat="39.0232280" lon="-3.9135630">
        <ele>659.3</ele>
        <time>2022-11-01T12:46:15Z</time>
      </trkpt>
      <trkpt lat="39.0232560" lon="-3.9135350">
        <ele>659.7</ele>
        <time>2022-11-01T12:46:34Z</time>
      </trkpt>
      <trkpt lat="39.0232710" lon="-3.9135050">
        <ele>659.9</ele>
        <time>2022-11-01T12:46:38Z</time>
      </trkpt>
      <trkpt lat="39.0233120" lon="-3.9134150">
        <ele>660.6</ele>
        <time>2022-11-01T12:46:47Z</time>
      </trkpt>
      <trkpt lat="39.0233310" lon="-3.9133370">
        <ele>661.1</ele>
        <time>2022-11-01T12:46:54Z</time>
      </trkpt>
      <trkpt lat="39.0233680" lon="-3.9132590">
        <ele>661.7</ele>
        <time>2022-11-01T12:47:02Z</time>
      </trkpt>
      <trkpt lat="39.0234040" lon="-3.9131800">
        <ele>662.3</ele>
        <time>2022-11-01T12:47:10Z</time>
      </trkpt>
      <trkpt lat="39.0234470" lon="-3.9131080">
        <ele>662.8</ele>
        <time>2022-11-01T12:47:29Z</time>
      </trkpt>
      <trkpt lat="39.0234670" lon="-3.9130690">
        <ele>663.1</ele>
        <time>2022-11-01T12:47:35Z</time>
      </trkpt>
      <trkpt lat="39.0235020" lon="-3.9130090">
        <ele>663.5</ele>
        <time>2022-11-01T12:47:42Z</time>
      </trkpt>
      <trkpt lat="39.0235430" lon="-3.9129520">
        <ele>664.0</ele>
        <time>2022-11-01T12:47:50Z</time>
      </trkpt>
      <trkpt lat="39.0235930" lon="-3.9128860">
        <ele>664.5</ele>
        <time>2022-11-01T12:47:58Z</time>
      </trkpt>
      <trkpt lat="39.0236830" lon="-3.9128070">
        <ele>665.2</ele>
        <time>2022-11-01T12:48:09Z</time>
      </trkpt>
      <trkpt lat="39.0237500" lon="-3.9127260">
        <ele>665.7</ele>
        <time>2022-11-01T12:48:18Z</time>
      </trkpt>
      <trkpt lat="39.0238390" lon="-3.9126510">
        <ele>666.2</ele>
        <time>2022-11-01T12:48:29Z</time>
      </trkpt>
      <trkpt lat="39.0239090" lon="-3.9126110">
        <ele>666.6</ele>
        <time>2022-11-01T12:48:37Z</time>
      </trkpt>
      <trkpt lat="39.0239840" lon="-3.9125730">
        <ele>666.9</ele>
        <time>2022-11-01T12:48:45Z</time>
      </trkpt>
      <trkpt lat="39.0240470" lon="-3.9125750">
        <ele>667.1</ele>
        <time>2022-11-01T12:48:51Z</time>
      </trkpt>
      <trkpt lat="39.0240830" lon="-3.9125770">
        <ele>667.3</ele>
        <time>2022-11-01T12:48:54Z</time>
      </trkpt>
      <trkpt lat="39.0241420" lon="-3.9125110">
        <ele>667.3</ele>
        <time>2022-11-01T12:49:01Z</time>
      </trkpt>
      <trkpt lat="39.0241840" lon="-3.9124200">
        <ele>667.4</ele>
        <time>2022-11-01T12:49:09Z</time>
      </trkpt>
      <trkpt lat="39.0241880" lon="-3.9123910">
        <ele>667.4</ele>
        <time>2022-11-01T12:49:11Z</time>
      </trkpt>
      <trkpt lat="39.0241940" lon="-3.9123320">
        <ele>667.4</ele>
        <time>2022-11-01T12:49:15Z</time>
      </trkpt>
      <trkpt lat="39.0242270" lon="-3.9122450">
        <ele>667.4</ele>
        <time>2022-11-01T12:49:22Z</time>
      </trkpt>
      <trkpt lat="39.0242160" lon="-3.9121600">
        <ele>667.3</ele>
        <time>2022-11-01T12:49:29Z</time>
      </trkpt>
      <trkpt lat="39.0242050" lon="-3.9121540">
        <ele>667.3</ele>
        <time>2022-11-01T12:49:30Z</time>
      </trkpt>
      <trkpt lat="39.0241420" lon="-3.9120800">
        <ele>667.3</ele>
        <time>2022-11-01T12:49:37Z</time>
      </trkpt>
      <trkpt lat="39.0241410" lon="-3.9120520">
        <ele>667.3</ele>
        <time>2022-11-01T12:49:39Z</time>
      </trkpt>
      <trkpt lat="39.0241350" lon="-3.9119040">
        <ele>667.3</ele>
        <time>2022-11-01T12:49:48Z</time>
      </trkpt>
      <trkpt lat="39.0241860" lon="-3.9117810">
        <ele>667.3</ele>
        <time>2022-11-01T12:49:57Z</time>
      </trkpt>
      <trkpt lat="39.0242550" lon="-3.9117200">
        <ele>667.3</ele>
        <time>2022-11-01T12:50:05Z</time>
      </trkpt>
      <trkpt lat="39.0243440" lon="-3.9117140">
        <ele>667.2</ele>
        <time>2022-11-01T12:50:13Z</time>
      </trkpt>
      <trkpt lat="39.0244490" lon="-3.9117330">
        <ele>667.2</ele>
        <time>2022-11-01T12:50:23Z</time>
      </trkpt>
      <trkpt lat="39.0245190" lon="-3.9117560">
        <ele>667.2</ele>
        <time>2022-11-01T12:50:30Z</time>
      </trkpt>
      <trkpt lat="39.0245100" lon="-3.9117020">
        <ele>667.2</ele>
        <time>2022-11-01T13:23:51Z</time>
      </trkpt>
      <trkpt lat="39.0243930" lon="-3.9116470">
        <ele>667.2</ele>
        <time>2022-11-01T13:24:00Z</time>
      </trkpt>
      <trkpt lat="39.0242930" lon="-3.9115990">
        <ele>667.2</ele>
        <time>2022-11-01T13:24:08Z</time>
      </trkpt>
      <trkpt lat="39.0242080" lon="-3.9116230">
        <ele>667.3</ele>
        <time>2022-11-01T13:24:15Z</time>
      </trkpt>
      <trkpt lat="39.0241560" lon="-3.9116670">
        <ele>667.3</ele>
        <time>2022-11-01T13:24:21Z</time>
      </trkpt>
      <trkpt lat="39.0241210" lon="-3.9117670">
        <ele>667.3</ele>
        <time>2022-11-01T13:24:30Z</time>
      </trkpt>
      <trkpt lat="39.0241100" lon="-3.9118310">
        <ele>667.3</ele>
        <time>2022-11-01T13:24:36Z</time>
      </trkpt>
      <trkpt lat="39.0241060" lon="-3.9118460">
        <ele>667.3</ele>
        <time>2022-11-01T13:24:38Z</time>
      </trkpt>
      <trkpt lat="39.0240700" lon="-3.9119220">
        <ele>667.3</ele>
        <time>2022-11-01T13:24:44Z</time>
      </trkpt>
      <trkpt lat="39.0240180" lon="-3.9120170">
        <ele>667.3</ele>
        <time>2022-11-01T13:24:53Z</time>
      </trkpt>
      <trkpt lat="39.0239900" lon="-3.9120840">
        <ele>667.3</ele>
        <time>2022-11-01T13:24:59Z</time>
      </trkpt>
      <trkpt lat="39.0239860" lon="-3.9120980">
        <ele>667.3</ele>
        <time>2022-11-01T13:25:01Z</time>
      </trkpt>
      <trkpt lat="39.0239600" lon="-3.9121640">
        <ele>667.4</ele>
        <time>2022-11-01T13:25:07Z</time>
      </trkpt>
      <trkpt lat="39.0239570" lon="-3.9121850">
        <ele>667.4</ele>
        <time>2022-11-01T13:25:09Z</time>
      </trkpt>
      <trkpt lat="39.0239400" lon="-3.9122520">
        <ele>667.4</ele>
        <time>2022-11-01T13:25:16Z</time>
      </trkpt>
      <trkpt lat="39.0239310" lon="-3.9122900">
        <ele>667.4</ele>
        <time>2022-11-01T13:25:19Z</time>
      </trkpt>
      <trkpt lat="39.0239260" lon="-3.9123620">
        <ele>667.4</ele>
        <time>2022-11-01T13:25:23Z</time>
      </trkpt>
      <trkpt lat="39.0239330" lon="-3.9124500">
        <ele>667.3</ele>
        <time>2022-11-01T13:25:30Z</time>
      </trkpt>
      <trkpt lat="39.0238820" lon="-3.9125660">
        <ele>666.9</ele>
        <time>2022-11-01T13:25:38Z</time>
      </trkpt>
      <trkpt lat="39.0238650" lon="-3.9125840">
        <ele>666.8</ele>
        <time>2022-11-01T13:25:40Z</time>
      </trkpt>
      <trkpt lat="39.0237940" lon="-3.9126690">
        <ele>666.4</ele>
        <time>2022-11-01T13:25:48Z</time>
      </trkpt>
      <trkpt lat="39.0237280" lon="-3.9127420">
        <ele>665.9</ele>
        <time>2022-11-01T13:25:57Z</time>
      </trkpt>
      <trkpt lat="39.0236060" lon="-3.9128570">
        <ele>665.0</ele>
        <time>2022-11-01T13:26:07Z</time>
      </trkpt>
      <trkpt lat="39.0235710" lon="-3.9128840">
        <ele>664.8</ele>
        <time>2022-11-01T13:26:11Z</time>
      </trkpt>
      <trkpt lat="39.0235540" lon="-3.9129150">
        <ele>664.6</ele>
        <time>2022-11-01T13:26:15Z</time>
      </trkpt>
      <trkpt lat="39.0234830" lon="-3.9130010">
        <ele>663.9</ele>
        <time>2022-11-01T13:26:24Z</time>
      </trkpt>
      <trkpt lat="39.0234160" lon="-3.9131100">
        <ele>663.1</ele>
        <time>2022-11-01T13:26:32Z</time>
      </trkpt>
      <trkpt lat="39.0233390" lon="-3.9132230">
        <ele>662.1</ele>
        <time>2022-11-01T13:26:41Z</time>
      </trkpt>
      <trkpt lat="39.0232870" lon="-3.9133410">
        <ele>661.2</ele>
        <time>2022-11-01T13:26:49Z</time>
      </trkpt>
      <trkpt lat="39.0231990" lon="-3.9134360">
        <ele>660.2</ele>
        <time>2022-11-01T13:26:57Z</time>
      </trkpt>
      <trkpt lat="39.0231190" lon="-3.9135280">
        <ele>659.2</ele>
        <time>2022-11-01T13:27:06Z</time>
      </trkpt>
      <trkpt lat="39.0231080" lon="-3.9135490">
        <ele>659.1</ele>
        <time>2022-11-01T13:27:09Z</time>
      </trkpt>
      <trkpt lat="39.0230750" lon="-3.9135740">
        <ele>658.7</ele>
        <time>2022-11-01T13:27:12Z</time>
      </trkpt>
      <trkpt lat="39.0229760" lon="-3.9136660">
        <ele>657.6</ele>
        <time>2022-11-01T13:27:22Z</time>
      </trkpt>
      <trkpt lat="39.0228770" lon="-3.9137750">
        <ele>657.0</ele>
        <time>2022-11-01T13:27:34Z</time>
      </trkpt>
      <trkpt lat="39.0227780" lon="-3.9138650">
        <ele>656.4</ele>
        <time>2022-11-01T13:27:45Z</time>
      </trkpt>
      <trkpt lat="39.0226400" lon="-3.9139540">
        <ele>655.4</ele>
        <time>2022-11-01T13:27:57Z</time>
      </trkpt>
      <trkpt lat="39.0225220" lon="-3.9140410">
        <ele>654.5</ele>
        <time>2022-11-01T13:28:09Z</time>
      </trkpt>
      <trkpt lat="39.0224110" lon="-3.9141000">
        <ele>653.2</ele>
        <time>2022-11-01T13:28:17Z</time>
      </trkpt>
      <trkpt lat="39.0223000" lon="-3.9141570">
        <ele>652.5</ele>
        <time>2022-11-01T13:28:27Z</time>
      </trkpt>
      <trkpt lat="39.0221830" lon="-3.9142440">
        <ele>651.6</ele>
        <time>2022-11-01T13:28:37Z</time>
      </trkpt>
      <trkpt lat="39.0220550" lon="-3.9143340">
        <ele>650.9</ele>
        <time>2022-11-01T13:28:49Z</time>
      </trkpt>
      <trkpt lat="39.0219790" lon="-3.9143990">
        <ele>649.8</ele>
        <time>2022-11-01T13:28:57Z</time>
      </trkpt>
      <trkpt lat="39.0218520" lon="-3.9144720">
        <ele>648.9</ele>
        <time>2022-11-01T13:29:07Z</time>
      </trkpt>
      <trkpt lat="39.0217910" lon="-3.9145090">
        <ele>648.3</ele>
        <time>2022-11-01T13:29:13Z</time>
      </trkpt>
      <trkpt lat="39.0217600" lon="-3.9145210">
        <ele>648.0</ele>
        <time>2022-11-01T13:29:16Z</time>
      </trkpt>
      <trkpt lat="39.0216920" lon="-3.9145790">
        <ele>647.3</ele>
        <time>2022-11-01T13:29:23Z</time>
      </trkpt>
      <trkpt lat="39.0215270" lon="-3.9146190">
        <ele>646.0</ele>
        <time>2022-11-01T13:29:35Z</time>
      </trkpt>
      <trkpt lat="39.0214490" lon="-3.9146810">
        <ele>645.3</ele>
        <time>2022-11-01T13:29:44Z</time>
      </trkpt>
      <trkpt lat="39.0214350" lon="-3.9146880">
        <ele>645.3</ele>
        <time>2022-11-01T13:29:45Z</time>
      </trkpt>
      <trkpt lat="39.0213650" lon="-3.9147400">
        <ele>644.7</ele>
        <time>2022-11-01T13:29:51Z</time>
      </trkpt>
      <trkpt lat="39.0212030" lon="-3.9148060">
        <ele>643.6</ele>
        <time>2022-11-01T13:30:04Z</time>
      </trkpt>
      <trkpt lat="39.0210860" lon="-3.9149370">
        <ele>642.7</ele>
        <time>2022-11-01T13:30:16Z</time>
      </trkpt>
      <trkpt lat="39.0210180" lon="-3.9149920">
        <ele>642.5</ele>
        <time>2022-11-01T13:30:24Z</time>
      </trkpt>
      <trkpt lat="39.0210040" lon="-3.9149990">
        <ele>642.5</ele>
        <time>2022-11-01T13:30:25Z</time>
      </trkpt>
      <trkpt lat="39.0209220" lon="-3.9150510">
        <ele>641.8</ele>
        <time>2022-11-01T13:30:33Z</time>
      </trkpt>
      <trkpt lat="39.0208280" lon="-3.9151480">
        <ele>641.2</ele>
        <time>2022-11-01T13:30:43Z</time>
      </trkpt>
      <trkpt lat="39.0207350" lon="-3.9152220">
        <ele>640.7</ele>
        <time>2022-11-01T13:30:52Z</time>
      </trkpt>
      <trkpt lat="39.0206220" lon="-3.9153330">
        <ele>640.0</ele>
        <time>2022-11-01T13:31:03Z</time>
      </trkpt>
      <trkpt lat="39.0205190" lon="-3.9154050">
        <ele>639.4</ele>
        <time>2022-11-01T13:31:13Z</time>
      </trkpt>
      <trkpt lat="39.0204220" lon="-3.9154100">
        <ele>638.9</ele>
        <time>2022-11-01T13:31:23Z</time>
      </trkpt>
      <trkpt lat="39.0203320" lon="-3.9154310">
        <ele>638.4</ele>
        <time>2022-11-01T13:31:30Z</time>
      </trkpt>
      <trkpt lat="39.0203100" lon="-3.9154300">
        <ele>638.3</ele>
        <time>2022-11-01T13:31:32Z</time>
      </trkpt>
      <trkpt lat="39.0202080" lon="-3.9154420">
        <ele>637.7</ele>
        <time>2022-11-01T13:31:40Z</time>
      </trkpt>
      <trkpt lat="39.0201220" lon="-3.9154400">
        <ele>637.3</ele>
        <time>2022-11-01T13:31:47Z</time>
      </trkpt>
      <trkpt lat="39.0199670" lon="-3.9154420">
        <ele>636.5</ele>
        <time>2022-11-01T13:31:58Z</time>
      </trkpt>
      <trkpt lat="39.0199420" lon="-3.9154570">
        <ele>636.4</ele>
        <time>2022-11-01T13:32:01Z</time>
      </trkpt>
      <trkpt lat="39.0198960" lon="-3.9154770">
        <ele>636.2</ele>
        <time>2022-11-01T13:32:06Z</time>
      </trkpt>
      <trkpt lat="39.0198890" lon="-3.9154830">
        <ele>636.1</ele>
        <time>2022-11-01T13:32:07Z</time>
      </trkpt>
      <trkpt lat="39.0198340" lon="-3.9154820">
        <ele>635.9</ele>
        <time>2022-11-01T13:32:12Z</time>
      </trkpt>
      <trkpt lat="39.0197750" lon="-3.9154880">
        <ele>635.6</ele>
        <time>2022-11-01T13:32:17Z</time>
      </trkpt>
      <trkpt lat="39.0197260" lon="-3.9154990">
        <ele>635.4</ele>
        <time>2022-11-01T13:32:21Z</time>
      </trkpt>
      <trkpt lat="39.0195780" lon="-3.9155100">
        <ele>634.7</ele>
        <time>2022-11-01T13:32:32Z</time>
      </trkpt>
      <trkpt lat="39.0194950" lon="-3.9155250">
        <ele>634.3</ele>
        <time>2022-11-01T13:32:40Z</time>
      </trkpt>
      <trkpt lat="39.0193520" lon="-3.9155340">
        <ele>633.7</ele>
        <time>2022-11-01T13:32:51Z</time>
      </trkpt>
      <trkpt lat="39.0192660" lon="-3.9155370">
        <ele>633.3</ele>
        <time>2022-11-01T13:32:58Z</time>
      </trkpt>
      <trkpt lat="39.0191760" lon="-3.9155560">
        <ele>632.9</ele>
        <time>2022-11-01T13:33:06Z</time>
      </trkpt>
      <trkpt lat="39.0190270" lon="-3.9155960">
        <ele>632.3</ele>
        <time>2022-11-01T13:33:18Z</time>
      </trkpt>
      <trkpt lat="39.0189320" lon="-3.9156090">
        <ele>631.9</ele>
        <time>2022-11-01T13:33:26Z</time>
      </trkpt>
      <trkpt lat="39.0187970" lon="-3.9156190">
        <ele>631.4</ele>
        <time>2022-11-01T13:33:37Z</time>
      </trkpt>
      <trkpt lat="39.0186960" lon="-3.9156020">
        <ele>631.1</ele>
        <time>2022-11-01T13:33:45Z</time>
      </trkpt>
      <trkpt lat="39.0185920" lon="-3.9155990">
        <ele>630.7</ele>
        <time>2022-11-01T13:33:54Z</time>
      </trkpt>
      <trkpt lat="39.0184580" lon="-3.9155400">
        <ele>630.2</ele>
        <time>2022-11-01T13:34:05Z</time>
      </trkpt>
      <trkpt lat="39.0183630" lon="-3.9155020">
        <ele>629.9</ele>
        <time>2022-11-01T13:34:15Z</time>
      </trkpt>
      <trkpt lat="39.0182730" lon="-3.9154370">
        <ele>629.6</ele>
        <time>2022-11-01T13:34:24Z</time>
      </trkpt>
      <trkpt lat="39.0181470" lon="-3.9154070">
        <ele>629.3</ele>
        <time>2022-11-01T13:34:35Z</time>
      </trkpt>
      <trkpt lat="39.0180510" lon="-3.9153890">
        <ele>629.1</ele>
        <time>2022-11-01T13:34:42Z</time>
      </trkpt>
      <trkpt lat="39.0179510" lon="-3.9154040">
        <ele>628.8</ele>
        <time>2022-11-01T13:34:50Z</time>
      </trkpt>
      <trkpt lat="39.0179390" lon="-3.9154070">
        <ele>628.8</ele>
        <time>2022-11-01T13:34:51Z</time>
      </trkpt>
      <trkpt lat="39.0178120" lon="-3.9154180">
        <ele>628.5</ele>
        <time>2022-11-01T13:35:01Z</time>
      </trkpt>
      <trkpt lat="39.0177070" lon="-3.9154380">
        <ele>628.3</ele>
        <time>2022-11-01T13:35:11Z</time>
      </trkpt>
      <trkpt lat="39.0175890" lon="-3.9154140">
        <ele>628.2</ele>
        <time>2022-11-01T13:35:20Z</time>
      </trkpt>
      <trkpt lat="39.0174790" lon="-3.9154430">
        <ele>628.1</ele>
        <time>2022-11-01T13:35:29Z</time>
      </trkpt>
      <trkpt lat="39.0173790" lon="-3.9154710">
        <ele>628.0</ele>
        <time>2022-11-01T13:35:38Z</time>
      </trkpt>
      <trkpt lat="39.0172590" lon="-3.9155250">
        <ele>627.9</ele>
        <time>2022-11-01T13:35:49Z</time>
      </trkpt>
      <trkpt lat="39.0171300" lon="-3.9155920">
        <ele>627.8</ele>
        <time>2022-11-01T13:36:00Z</time>
      </trkpt>
      <trkpt lat="39.0170380" lon="-3.9156430">
        <ele>627.7</ele>
        <time>2022-11-01T13:36:09Z</time>
      </trkpt>
      <trkpt lat="39.0170200" lon="-3.9156550">
        <ele>627.7</ele>
        <time>2022-11-01T13:36:11Z</time>
      </trkpt>
      <trkpt lat="39.0169950" lon="-3.9156820">
        <ele>627.7</ele>
        <time>2022-11-01T13:36:14Z</time>
      </trkpt>
      <trkpt lat="39.0169730" lon="-3.9156980">
        <ele>627.7</ele>
        <time>2022-11-01T13:36:16Z</time>
      </trkpt>
      <trkpt lat="39.0168620" lon="-3.9157460">
        <ele>627.6</ele>
        <time>2022-11-01T13:36:25Z</time>
      </trkpt>
      <trkpt lat="39.0168380" lon="-3.9157560">
        <ele>627.6</ele>
        <time>2022-11-01T13:36:27Z</time>
      </trkpt>
      <trkpt lat="39.0167770" lon="-3.9157760">
        <ele>627.6</ele>
        <time>2022-11-01T13:36:33Z</time>
      </trkpt>
      <trkpt lat="39.0166860" lon="-3.9158220">
        <ele>627.5</ele>
        <time>2022-11-01T13:36:41Z</time>
      </trkpt>
      <trkpt lat="39.0165500" lon="-3.9158900">
        <ele>627.5</ele>
        <time>2022-11-01T13:36:54Z</time>
      </trkpt>
      <trkpt lat="39.0164290" lon="-3.9159480">
        <ele>627.5</ele>
        <time>2022-11-01T13:37:05Z</time>
      </trkpt>
      <trkpt lat="39.0163170" lon="-3.9159810">
        <ele>627.5</ele>
        <time>2022-11-01T13:37:15Z</time>
      </trkpt>
      <trkpt lat="39.0161540" lon="-3.9160410">
        <ele>627.5</ele>
        <time>2022-11-01T13:37:30Z</time>
      </trkpt>
      <trkpt lat="39.0160350" lon="-3.9160510">
        <ele>627.6</ele>
        <time>2022-11-01T13:37:41Z</time>
      </trkpt>
      <trkpt lat="39.0159320" lon="-3.9160680">
        <ele>627.6</ele>
        <time>2022-11-01T13:37:51Z</time>
      </trkpt>
      <trkpt lat="39.0158510" lon="-3.9160740">
        <ele>627.6</ele>
        <time>2022-11-01T13:37:57Z</time>
      </trkpt>
      <trkpt lat="39.0158200" lon="-3.9160810">
        <ele>627.6</ele>
        <time>2022-11-01T13:38:00Z</time>
      </trkpt>
      <trkpt lat="39.0156790" lon="-3.9161210">
        <ele>627.5</ele>
        <time>2022-11-01T13:38:12Z</time>
      </trkpt>
      <trkpt lat="39.0155890" lon="-3.9161590">
        <ele>627.5</ele>
        <time>2022-11-01T13:38:20Z</time>
      </trkpt>
      <trkpt lat="39.0155230" lon="-3.9162430">
        <ele>627.5</ele>
        <time>2022-11-01T13:38:27Z</time>
      </trkpt>
      <trkpt lat="39.0154330" lon="-3.9163210">
        <ele>627.5</ele>
        <time>2022-11-01T13:38:36Z</time>
      </trkpt>
      <trkpt lat="39.0153340" lon="-3.9164310">
        <ele>627.4</ele>
        <time>2022-11-01T13:38:45Z</time>
      </trkpt>
      <trkpt lat="39.0152640" lon="-3.9165070">
        <ele>627.3</ele>
        <time>2022-11-01T13:38:53Z</time>
      </trkpt>
      <trkpt lat="39.0151460" lon="-3.9166530">
        <ele>627.1</ele>
        <time>2022-11-01T13:39:06Z</time>
      </trkpt>
      <trkpt lat="39.0150350" lon="-3.9167460">
        <ele>627.0</ele>
        <time>2022-11-01T13:39:16Z</time>
      </trkpt>
      <trkpt lat="39.0149600" lon="-3.9168380">
        <ele>626.9</ele>
        <time>2022-11-01T13:39:26Z</time>
      </trkpt>
      <trkpt lat="39.0148430" lon="-3.9169520">
        <ele>626.7</ele>
        <time>2022-11-01T13:39:37Z</time>
      </trkpt>
      <trkpt lat="39.0147550" lon="-3.9170580">
        <ele>626.6</ele>
        <time>2022-11-01T13:39:47Z</time>
      </trkpt>
      <trkpt lat="39.0146590" lon="-3.9171760">
        <ele>626.4</ele>
        <time>2022-11-01T13:39:58Z</time>
      </trkpt>
      <trkpt lat="39.0145780" lon="-3.9172990">
        <ele>626.3</ele>
        <time>2022-11-01T13:40:08Z</time>
      </trkpt>
      <trkpt lat="39.0144950" lon="-3.9174190">
        <ele>626.1</ele>
        <time>2022-11-01T13:40:19Z</time>
      </trkpt>
      <trkpt lat="39.0144080" lon="-3.9175660">
        <ele>625.9</ele>
        <time>2022-11-01T13:40:30Z</time>
      </trkpt>
      <trkpt lat="39.0143880" lon="-3.9175780">
        <ele>625.9</ele>
        <time>2022-11-01T13:40:35Z</time>
      </trkpt>
      <trkpt lat="39.0143500" lon="-3.9176420">
        <ele>625.9</ele>
        <time>2022-11-01T13:40:41Z</time>
      </trkpt>
      <trkpt lat="39.0142480" lon="-3.9177640">
        <ele>625.8</ele>
        <time>2022-11-01T13:40:53Z</time>
      </trkpt>
      <trkpt lat="39.0141480" lon="-3.9178810">
        <ele>625.8</ele>
        <time>2022-11-01T13:41:05Z</time>
      </trkpt>
      <trkpt lat="39.0140710" lon="-3.9179770">
        <ele>625.8</ele>
        <time>2022-11-01T13:41:13Z</time>
      </trkpt>
      <trkpt lat="39.0139760" lon="-3.9180690">
        <ele>625.8</ele>
        <time>2022-11-01T13:41:24Z</time>
      </trkpt>
      <trkpt lat="39.0138420" lon="-3.9181970">
        <ele>625.9</ele>
        <time>2022-11-01T13:41:37Z</time>
      </trkpt>
      <trkpt lat="39.0137490" lon="-3.9182790">
        <ele>626.0</ele>
        <time>2022-11-01T13:41:46Z</time>
      </trkpt>
      <trkpt lat="39.0136390" lon="-3.9183800">
        <ele>626.1</ele>
        <time>2022-11-01T13:41:58Z</time>
      </trkpt>
      <trkpt lat="39.0136290" lon="-3.9183890">
        <ele>626.1</ele>
        <time>2022-11-01T13:41:59Z</time>
      </trkpt>
      <trkpt lat="39.0135610" lon="-3.9184530">
        <ele>626.1</ele>
        <time>2022-11-01T13:42:05Z</time>
      </trkpt>
      <trkpt lat="39.0134890" lon="-3.9185150">
        <ele>626.2</ele>
        <time>2022-11-01T13:42:13Z</time>
      </trkpt>
      <trkpt lat="39.0133660" lon="-3.9186270">
        <ele>626.2</ele>
        <time>2022-11-01T13:42:24Z</time>
      </trkpt>
      <trkpt lat="39.0132890" lon="-3.9186940">
        <ele>626.2</ele>
        <time>2022-11-01T13:42:32Z</time>
      </trkpt>
      <trkpt lat="39.0131940" lon="-3.9187860">
        <ele>626.2</ele>
        <time>2022-11-01T13:42:41Z</time>
      </trkpt>
      <trkpt lat="39.0130900" lon="-3.9188650">
        <ele>626.2</ele>
        <time>2022-11-01T13:42:50Z</time>
      </trkpt>
      <trkpt lat="39.0129500" lon="-3.9189590">
        <ele>626.2</ele>
        <time>2022-11-01T13:43:05Z</time>
      </trkpt>
      <trkpt lat="39.0128410" lon="-3.9190320">
        <ele>626.2</ele>
        <time>2022-11-01T13:43:15Z</time>
      </trkpt>
      <trkpt lat="39.0127360" lon="-3.9191010">
        <ele>626.2</ele>
        <time>2022-11-01T13:43:25Z</time>
      </trkpt>
      <trkpt lat="39.0126460" lon="-3.9191660">
        <ele>626.3</ele>
        <time>2022-11-01T13:43:35Z</time>
      </trkpt>
      <trkpt lat="39.0125410" lon="-3.9192330">
        <ele>626.3</ele>
        <time>2022-11-01T13:43:45Z</time>
      </trkpt>
      <trkpt lat="39.0124300" lon="-3.9193200">
        <ele>626.4</ele>
        <time>2022-11-01T13:43:55Z</time>
      </trkpt>
      <trkpt lat="39.0123570" lon="-3.9193680">
        <ele>626.4</ele>
        <time>2022-11-01T13:44:03Z</time>
      </trkpt>
      <trkpt lat="39.0122570" lon="-3.9194530">
        <ele>626.3</ele>
        <time>2022-11-01T13:44:12Z</time>
      </trkpt>
      <trkpt lat="39.0121850" lon="-3.9195130">
        <ele>626.2</ele>
        <time>2022-11-01T13:44:20Z</time>
      </trkpt>
      <trkpt lat="39.0120750" lon="-3.9196220">
        <ele>626.2</ele>
        <time>2022-11-01T13:44:31Z</time>
      </trkpt>
      <trkpt lat="39.0119980" lon="-3.9197210">
        <ele>626.1</ele>
        <time>2022-11-01T13:44:40Z</time>
      </trkpt>
      <trkpt lat="39.0119240" lon="-3.9198060">
        <ele>626.0</ele>
        <time>2022-11-01T13:44:48Z</time>
      </trkpt>
      <trkpt lat="39.0118240" lon="-3.9198940">
        <ele>626.0</ele>
        <time>2022-11-01T13:44:57Z</time>
      </trkpt>
      <trkpt lat="39.0117400" lon="-3.9199680">
        <ele>626.0</ele>
        <time>2022-11-01T13:45:06Z</time>
      </trkpt>
      <trkpt lat="39.0116360" lon="-3.9200290">
        <ele>626.0</ele>
        <time>2022-11-01T13:45:15Z</time>
      </trkpt>
      <trkpt lat="39.0115500" lon="-3.9200850">
        <ele>626.1</ele>
        <time>2022-11-01T13:45:24Z</time>
      </trkpt>
      <trkpt lat="39.0114380" lon="-3.9201040">
        <ele>626.1</ele>
        <time>2022-11-01T13:45:33Z</time>
      </trkpt>
      <trkpt lat="39.0113190" lon="-3.9201060">
        <ele>626.2</ele>
        <time>2022-11-01T13:45:42Z</time>
      </trkpt>
      <trkpt lat="39.0111980" lon="-3.9200830">
        <ele>626.3</ele>
        <time>2022-11-01T13:45:53Z</time>
      </trkpt>
      <trkpt lat="39.0110770" lon="-3.9200450">
        <ele>626.3</ele>
        <time>2022-11-01T13:46:02Z</time>
      </trkpt>
      <trkpt lat="39.0109930" lon="-3.9200380">
        <ele>626.3</ele>
        <time>2022-11-01T13:46:10Z</time>
      </trkpt>
      <trkpt lat="39.0108710" lon="-3.9200050">
        <ele>626.4</ele>
        <time>2022-11-01T13:46:20Z</time>
      </trkpt>
      <trkpt lat="39.0107500" lon="-3.9199830">
        <ele>626.5</ele>
        <time>2022-11-01T13:46:29Z</time>
      </trkpt>
      <trkpt lat="39.0106930" lon="-3.9199880">
        <ele>626.5</ele>
        <time>2022-11-01T13:46:34Z</time>
      </trkpt>
      <trkpt lat="39.0106530" lon="-3.9199910">
        <ele>626.5</ele>
        <time>2022-11-01T13:46:38Z</time>
      </trkpt>
      <trkpt lat="39.0105600" lon="-3.9199560">
        <ele>626.6</ele>
        <time>2022-11-01T13:46:48Z</time>
      </trkpt>
      <trkpt lat="39.0105340" lon="-3.9199490">
        <ele>626.6</ele>
        <time>2022-11-01T13:46:51Z</time>
      </trkpt>
      <trkpt lat="39.0105190" lon="-3.9199470">
        <ele>626.6</ele>
        <time>2022-11-01T13:46:54Z</time>
      </trkpt>
      <trkpt lat="39.0104760" lon="-3.9199140">
        <ele>626.7</ele>
        <time>2022-11-01T13:46:59Z</time>
      </trkpt>
      <trkpt lat="39.0104590" lon="-3.9198960">
        <ele>626.7</ele>
        <time>2022-11-01T13:47:02Z</time>
      </trkpt>
      <trkpt lat="39.0103770" lon="-3.9198630">
        <ele>626.8</ele>
        <time>2022-11-01T13:47:09Z</time>
      </trkpt>
      <trkpt lat="39.0103590" lon="-3.9198640">
        <ele>626.8</ele>
        <time>2022-11-01T13:47:11Z</time>
      </trkpt>
      <trkpt lat="39.0103440" lon="-3.9198600">
        <ele>626.8</ele>
        <time>2022-11-01T13:47:15Z</time>
      </trkpt>
      <trkpt lat="39.0102480" lon="-3.9198010">
        <ele>626.9</ele>
        <time>2022-11-01T13:47:24Z</time>
      </trkpt>
      <trkpt lat="39.0101310" lon="-3.9197710">
        <ele>627.0</ele>
        <time>2022-11-01T13:47:34Z</time>
      </trkpt>
      <trkpt lat="39.0099930" lon="-3.9197390">
        <ele>627.1</ele>
        <time>2022-11-01T13:47:45Z</time>
      </trkpt>
      <trkpt lat="39.0098910" lon="-3.9197170">
        <ele>627.2</ele>
        <time>2022-11-01T13:47:53Z</time>
      </trkpt>
      <trkpt lat="39.0097600" lon="-3.9196720">
        <ele>627.4</ele>
        <time>2022-11-01T13:48:04Z</time>
      </trkpt>
      <trkpt lat="39.0096310" lon="-3.9196450">
        <ele>627.5</ele>
        <time>2022-11-01T13:48:15Z</time>
      </trkpt>
      <trkpt lat="39.0095080" lon="-3.9195960">
        <ele>627.6</ele>
        <time>2022-11-01T13:48:25Z</time>
      </trkpt>
      <trkpt lat="39.0093960" lon="-3.9195550">
        <ele>627.8</ele>
        <time>2022-11-01T13:48:34Z</time>
      </trkpt>
      <trkpt lat="39.0092900" lon="-3.9195050">
        <ele>627.9</ele>
        <time>2022-11-01T13:48:43Z</time>
      </trkpt>
      <trkpt lat="39.0091600" lon="-3.9194870">
        <ele>628.1</ele>
        <time>2022-11-01T13:48:53Z</time>
      </trkpt>
      <trkpt lat="39.0090500" lon="-3.9194380">
        <ele>628.3</ele>
        <time>2022-11-01T13:49:02Z</time>
      </trkpt>
      <trkpt lat="39.0090390" lon="-3.9194300">
        <ele>628.3</ele>
        <time>2022-11-01T13:49:03Z</time>
      </trkpt>
      <trkpt lat="39.0089530" lon="-3.9193970">
        <ele>628.6</ele>
        <time>2022-11-01T13:49:11Z</time>
      </trkpt>
      <trkpt lat="39.0087930" lon="-3.9193230">
        <ele>628.9</ele>
        <time>2022-11-01T13:49:24Z</time>
      </trkpt>
      <trkpt lat="39.0086870" lon="-3.9192590">
        <ele>628.9</ele>
        <time>2022-11-01T13:49:35Z</time>
      </trkpt>
      <trkpt lat="39.0085480" lon="-3.9191880">
        <ele>628.9</ele>
        <time>2022-11-01T13:49:46Z</time>
      </trkpt>
      <trkpt lat="39.0084410" lon="-3.9191490">
        <ele>628.8</ele>
        <time>2022-11-01T13:49:55Z</time>
      </trkpt>
      <trkpt lat="39.0082820" lon="-3.9191080">
        <ele>628.7</ele>
        <time>2022-11-01T13:50:08Z</time>
      </trkpt>
      <trkpt lat="39.0081580" lon="-3.9190720">
        <ele>628.6</ele>
        <time>2022-11-01T13:50:19Z</time>
      </trkpt>
      <trkpt lat="39.0080520" lon="-3.9190450">
        <ele>628.5</ele>
        <time>2022-11-01T13:50:28Z</time>
      </trkpt>
      <trkpt lat="39.0079270" lon="-3.9190140">
        <ele>628.4</ele>
        <time>2022-11-01T13:50:39Z</time>
      </trkpt>
      <trkpt lat="39.0077960" lon="-3.9189790">
        <ele>628.3</ele>
        <time>2022-11-01T13:50:49Z</time>
      </trkpt>
      <trkpt lat="39.0076410" lon="-3.9189400">
        <ele>628.2</ele>
        <time>2022-11-01T13:51:01Z</time>
      </trkpt>
      <trkpt lat="39.0075360" lon="-3.9189050">
        <ele>628.1</ele>
        <time>2022-11-01T13:51:10Z</time>
      </trkpt>
      <trkpt lat="39.0074240" lon="-3.9188830">
        <ele>628.0</ele>
        <time>2022-11-01T13:51:19Z</time>
      </trkpt>
      <trkpt lat="39.0073260" lon="-3.9188580">
        <ele>628.0</ele>
        <time>2022-11-01T13:51:28Z</time>
      </trkpt>
      <trkpt lat="39.0071850" lon="-3.9188320">
        <ele>627.9</ele>
        <time>2022-11-01T13:51:39Z</time>
      </trkpt>
      <trkpt lat="39.0070630" lon="-3.9188110">
        <ele>627.9</ele>
        <time>2022-11-01T13:51:49Z</time>
      </trkpt>
      <trkpt lat="39.0069390" lon="-3.9187880">
        <ele>627.8</ele>
        <time>2022-11-01T13:51:58Z</time>
      </trkpt>
      <trkpt lat="39.0068320" lon="-3.9187730">
        <ele>627.8</ele>
        <time>2022-11-01T13:52:06Z</time>
      </trkpt>
      <trkpt lat="39.0067770" lon="-3.9187690">
        <ele>627.7</ele>
        <time>2022-11-01T13:52:11Z</time>
      </trkpt>
      <trkpt lat="39.0067150" lon="-3.9187650">
        <ele>627.7</ele>
        <time>2022-11-01T13:52:16Z</time>
      </trkpt>
      <trkpt lat="39.0066070" lon="-3.9187480">
        <ele>627.6</ele>
        <time>2022-11-01T13:52:26Z</time>
      </trkpt>
      <trkpt lat="39.0064770" lon="-3.9187420">
        <ele>627.5</ele>
        <time>2022-11-01T13:52:35Z</time>
      </trkpt>
      <trkpt lat="39.0063610" lon="-3.9187390">
        <ele>627.3</ele>
        <time>2022-11-01T13:52:45Z</time>
      </trkpt>
      <trkpt lat="39.0062730" lon="-3.9187180">
        <ele>627.2</ele>
        <time>2022-11-01T13:52:53Z</time>
      </trkpt>
      <trkpt lat="39.0062080" lon="-3.9187350">
        <ele>627.2</ele>
        <time>2022-11-01T13:53:35Z</time>
      </trkpt>
      <trkpt lat="39.0062080" lon="-3.9187360">
        <ele>627.2</ele>
        <time>2022-11-01T13:53:36Z</time>
      </trkpt>
      <trkpt lat="39.0061560" lon="-3.9187390">
        <ele>627.2</ele>
        <time>2022-11-01T13:53:43Z</time>
      </trkpt>
      <trkpt lat="39.0060550" lon="-3.9187290">
        <ele>627.1</ele>
        <time>2022-11-01T13:53:51Z</time>
      </trkpt>
      <trkpt lat="39.0059540" lon="-3.9187180">
        <ele>627.1</ele>
        <time>2022-11-01T13:53:59Z</time>
      </trkpt>
      <trkpt lat="39.0058180" lon="-3.9187040">
        <ele>627.1</ele>
        <time>2022-11-01T13:54:09Z</time>
      </trkpt>
      <trkpt lat="39.0057360" lon="-3.9186990">
        <ele>627.0</ele>
        <time>2022-11-01T13:54:16Z</time>
      </trkpt>
      <trkpt lat="39.0055700" lon="-3.9186930">
        <ele>627.1</ele>
        <time>2022-11-01T13:54:29Z</time>
      </trkpt>
      <trkpt lat="39.0054730" lon="-3.9186880">
        <ele>627.1</ele>
        <time>2022-11-01T13:54:37Z</time>
      </trkpt>
      <trkpt lat="39.0053810" lon="-3.9186860">
        <ele>627.2</ele>
        <time>2022-11-01T13:54:45Z</time>
      </trkpt>
      <trkpt lat="39.0052330" lon="-3.9186750">
        <ele>627.3</ele>
        <time>2022-11-01T13:54:56Z</time>
      </trkpt>
      <trkpt lat="39.0051060" lon="-3.9186640">
        <ele>627.4</ele>
        <time>2022-11-01T13:55:07Z</time>
      </trkpt>
      <trkpt lat="39.0049620" lon="-3.9186650">
        <ele>627.4</ele>
        <time>2022-11-01T13:55:17Z</time>
      </trkpt>
      <trkpt lat="39.0048820" lon="-3.9186750">
        <ele>627.5</ele>
        <time>2022-11-01T13:55:25Z</time>
      </trkpt>
      <trkpt lat="39.0047580" lon="-3.9186940">
        <ele>627.6</ele>
        <time>2022-11-01T13:55:34Z</time>
      </trkpt>
      <trkpt lat="39.0046530" lon="-3.9187030">
        <ele>627.7</ele>
        <time>2022-11-01T13:55:43Z</time>
      </trkpt>
      <trkpt lat="39.0045050" lon="-3.9187200">
        <ele>627.7</ele>
        <time>2022-11-01T13:55:54Z</time>
      </trkpt>
      <trkpt lat="39.0043800" lon="-3.9187400">
        <ele>627.7</ele>
        <time>2022-11-01T13:56:04Z</time>
      </trkpt>
      <trkpt lat="39.0042720" lon="-3.9187760">
        <ele>627.8</ele>
        <time>2022-11-01T13:56:13Z</time>
      </trkpt>
      <trkpt lat="39.0041630" lon="-3.9188040">
        <ele>627.8</ele>
        <time>2022-11-01T13:56:22Z</time>
      </trkpt>
      <trkpt lat="39.0040760" lon="-3.9188420">
        <ele>627.9</ele>
        <time>2022-11-01T13:56:30Z</time>
      </trkpt>
      <trkpt lat="39.0039520" lon="-3.9188810">
        <ele>627.9</ele>
        <time>2022-11-01T13:56:40Z</time>
      </trkpt>
      <trkpt lat="39.0038480" lon="-3.9189090">
        <ele>628.0</ele>
        <time>2022-11-01T13:56:48Z</time>
      </trkpt>
      <trkpt lat="39.0037210" lon="-3.9189380">
        <ele>628.0</ele>
        <time>2022-11-01T13:56:57Z</time>
      </trkpt>
      <trkpt lat="39.0035970" lon="-3.9189600">
        <ele>628.1</ele>
        <time>2022-11-01T13:57:07Z</time>
      </trkpt>
      <trkpt lat="39.0034780" lon="-3.9190050">
        <ele>628.1</ele>
        <time>2022-11-01T13:57:17Z</time>
      </trkpt>
      <trkpt lat="39.0033420" lon="-3.9190480">
        <ele>628.2</ele>
        <time>2022-11-01T13:57:29Z</time>
      </trkpt>
      <trkpt lat="39.0032040" lon="-3.9190750">
        <ele>628.3</ele>
        <time>2022-11-01T13:57:40Z</time>
      </trkpt>
      <trkpt lat="39.0030730" lon="-3.9191060">
        <ele>628.3</ele>
        <time>2022-11-01T13:57:51Z</time>
      </trkpt>
      <trkpt lat="39.0029460" lon="-3.9191130">
        <ele>628.4</ele>
        <time>2022-11-01T13:58:01Z</time>
      </trkpt>
      <trkpt lat="39.0029190" lon="-3.9191190">
        <ele>628.4</ele>
        <time>2022-11-01T13:58:03Z</time>
      </trkpt>
      <trkpt lat="39.0028650" lon="-3.9191230">
        <ele>628.4</ele>
        <time>2022-11-01T13:58:07Z</time>
      </trkpt>
      <trkpt lat="39.0027380" lon="-3.9191420">
        <ele>628.4</ele>
        <time>2022-11-01T13:58:17Z</time>
      </trkpt>
      <trkpt lat="39.0025710" lon="-3.9191670">
        <ele>628.4</ele>
        <time>2022-11-01T13:58:28Z</time>
      </trkpt>
      <trkpt lat="39.0024600" lon="-3.9191730">
        <ele>628.5</ele>
        <time>2022-11-01T13:58:38Z</time>
      </trkpt>
      <trkpt lat="39.0023070" lon="-3.9191780">
        <ele>628.5</ele>
        <time>2022-11-01T13:58:51Z</time>
      </trkpt>
      <trkpt lat="39.0021850" lon="-3.9191680">
        <ele>628.5</ele>
        <time>2022-11-01T13:59:01Z</time>
      </trkpt>
      <trkpt lat="39.0020530" lon="-3.9191750">
        <ele>628.6</ele>
        <time>2022-11-01T13:59:11Z</time>
      </trkpt>
      <trkpt lat="39.0019420" lon="-3.9191670">
        <ele>628.6</ele>
        <time>2022-11-01T13:59:20Z</time>
      </trkpt>
      <trkpt lat="39.0018320" lon="-3.9191540">
        <ele>628.6</ele>
        <time>2022-11-01T13:59:28Z</time>
      </trkpt>
      <trkpt lat="39.0017250" lon="-3.9191470">
        <ele>628.6</ele>
        <time>2022-11-01T13:59:36Z</time>
      </trkpt>
      <trkpt lat="39.0016350" lon="-3.9191390">
        <ele>628.6</ele>
        <time>2022-11-01T13:59:44Z</time>
      </trkpt>
      <trkpt lat="39.0015110" lon="-3.9191170">
        <ele>628.7</ele>
        <time>2022-11-01T13:59:53Z</time>
      </trkpt>
      <trkpt lat="39.0013900" lon="-3.9190980">
        <ele>628.7</ele>
        <time>2022-11-01T14:00:04Z</time>
      </trkpt>
      <trkpt lat="39.0012590" lon="-3.9190930">
        <ele>628.8</ele>
        <time>2022-11-01T14:00:14Z</time>
      </trkpt>
      <trkpt lat="39.0011610" lon="-3.9190540">
        <ele>628.8</ele>
        <time>2022-11-01T14:00:23Z</time>
      </trkpt>
      <trkpt lat="39.0010250" lon="-3.9190160">
        <ele>628.9</ele>
        <time>2022-11-01T14:00:34Z</time>
      </trkpt>
      <trkpt lat="39.0009330" lon="-3.9189920">
        <ele>628.9</ele>
        <time>2022-11-01T14:00:42Z</time>
      </trkpt>
      <trkpt lat="39.0007910" lon="-3.9189400">
        <ele>628.9</ele>
        <time>2022-11-01T14:00:53Z</time>
      </trkpt>
      <trkpt lat="39.0007380" lon="-3.9189380">
        <ele>628.9</ele>
        <time>2022-11-01T14:00:58Z</time>
      </trkpt>
      <trkpt lat="39.0007050" lon="-3.9189250">
        <ele>628.9</ele>
        <time>2022-11-01T14:01:01Z</time>
      </trkpt>
      <trkpt lat="39.0005820" lon="-3.9188880">
        <ele>628.9</ele>
        <time>2022-11-01T14:01:10Z</time>
      </trkpt>
      <trkpt lat="39.0004790" lon="-3.9188670">
        <ele>628.9</ele>
        <time>2022-11-01T14:01:19Z</time>
      </trkpt>
      <trkpt lat="39.0003410" lon="-3.9188240">
        <ele>628.8</ele>
        <time>2022-11-01T14:01:31Z</time>
      </trkpt>
      <trkpt lat="39.0002590" lon="-3.9187900">
        <ele>628.8</ele>
        <time>2022-11-01T14:01:39Z</time>
      </trkpt>
      <trkpt lat="39.0001400" lon="-3.9187720">
        <ele>628.7</ele>
        <time>2022-11-01T14:01:47Z</time>
      </trkpt>
      <trkpt lat="39.0001010" lon="-3.9187720">
        <ele>628.6</ele>
        <time>2022-11-01T14:01:50Z</time>
      </trkpt>
      <trkpt lat="39.0000030" lon="-3.9187610">
        <ele>628.6</ele>
        <time>2022-11-01T14:01:58Z</time>
      </trkpt>
      <trkpt lat="38.9998790" lon="-3.9187490">
        <ele>628.4</ele>
        <time>2022-11-01T14:02:08Z</time>
      </trkpt>
      <trkpt lat="38.9997610" lon="-3.9187270">
        <ele>628.3</ele>
        <time>2022-11-01T14:02:17Z</time>
      </trkpt>
      <trkpt lat="38.9996200" lon="-3.9187110">
        <ele>628.2</ele>
        <time>2022-11-01T14:02:30Z</time>
      </trkpt>
      <trkpt lat="38.9994790" lon="-3.9187040">
        <ele>628.1</ele>
        <time>2022-11-01T14:02:41Z</time>
      </trkpt>
      <trkpt lat="38.9993500" lon="-3.9186880">
        <ele>628.0</ele>
        <time>2022-11-01T14:02:51Z</time>
      </trkpt>
      <trkpt lat="38.9991880" lon="-3.9186580">
        <ele>628.1</ele>
        <time>2022-11-01T14:03:03Z</time>
      </trkpt>
      <trkpt lat="38.9990310" lon="-3.9186350">
        <ele>628.1</ele>
        <time>2022-11-01T14:03:15Z</time>
      </trkpt>
      <trkpt lat="38.9989230" lon="-3.9186160">
        <ele>628.2</ele>
        <time>2022-11-01T14:03:24Z</time>
      </trkpt>
      <trkpt lat="38.9988040" lon="-3.9186040">
        <ele>628.3</ele>
        <time>2022-11-01T14:03:33Z</time>
      </trkpt>
      <trkpt lat="38.9986640" lon="-3.9186080">
        <ele>628.4</ele>
        <time>2022-11-01T14:03:45Z</time>
      </trkpt>
      <trkpt lat="38.9985560" lon="-3.9186020">
        <ele>628.6</ele>
        <time>2022-11-01T14:03:54Z</time>
      </trkpt>
      <trkpt lat="38.9984380" lon="-3.9185900">
        <ele>628.8</ele>
        <time>2022-11-01T14:04:04Z</time>
      </trkpt>
      <trkpt lat="38.9983140" lon="-3.9185660">
        <ele>629.0</ele>
        <time>2022-11-01T14:04:14Z</time>
      </trkpt>
      <trkpt lat="38.9982030" lon="-3.9185510">
        <ele>629.2</ele>
        <time>2022-11-01T14:04:24Z</time>
      </trkpt>
      <trkpt lat="38.9980810" lon="-3.9185280">
        <ele>629.3</ele>
        <time>2022-11-01T14:04:34Z</time>
      </trkpt>
      <trkpt lat="38.9979880" lon="-3.9185110">
        <ele>629.4</ele>
        <time>2022-11-01T14:04:42Z</time>
      </trkpt>
      <trkpt lat="38.9978600" lon="-3.9184910">
        <ele>629.6</ele>
        <time>2022-11-01T14:04:52Z</time>
      </trkpt>
      <trkpt lat="38.9977320" lon="-3.9184770">
        <ele>629.7</ele>
        <time>2022-11-01T14:05:02Z</time>
      </trkpt>
      <trkpt lat="38.9976210" lon="-3.9184700">
        <ele>629.7</ele>
        <time>2022-11-01T14:05:11Z</time>
      </trkpt>
      <trkpt lat="38.9974650" lon="-3.9184880">
        <ele>629.6</ele>
        <time>2022-11-01T14:05:22Z</time>
      </trkpt>
      <trkpt lat="38.9974440" lon="-3.9184880">
        <ele>629.6</ele>
        <time>2022-11-01T14:05:24Z</time>
      </trkpt>
      <trkpt lat="38.9973870" lon="-3.9184900">
        <ele>629.5</ele>
        <time>2022-11-01T14:05:29Z</time>
      </trkpt>
      <trkpt lat="38.9973450" lon="-3.9185080">
        <ele>629.4</ele>
        <time>2022-11-01T14:05:33Z</time>
      </trkpt>
      <trkpt lat="38.9973200" lon="-3.9185110">
        <ele>629.4</ele>
        <time>2022-11-01T14:05:35Z</time>
      </trkpt>
      <trkpt lat="38.9971770" lon="-3.9185360">
        <ele>629.1</ele>
        <time>2022-11-01T14:05:46Z</time>
      </trkpt>
      <trkpt lat="38.9970350" lon="-3.9185590">
        <ele>628.8</ele>
        <time>2022-11-01T14:05:56Z</time>
      </trkpt>
      <trkpt lat="38.9969220" lon="-3.9185720">
        <ele>628.6</ele>
        <time>2022-11-01T14:06:05Z</time>
      </trkpt>
      <trkpt lat="38.9967360" lon="-3.9185490">
        <ele>628.3</ele>
        <time>2022-11-01T14:06:18Z</time>
      </trkpt>
      <trkpt lat="38.9967090" lon="-3.9185460">
        <ele>628.3</ele>
        <time>2022-11-01T14:06:20Z</time>
      </trkpt>
      <trkpt lat="38.9965570" lon="-3.9185220">
        <ele>628.1</ele>
        <time>2022-11-01T14:06:33Z</time>
      </trkpt>
      <trkpt lat="38.9964090" lon="-3.9185120">
        <ele>628.0</ele>
        <time>2022-11-01T14:06:46Z</time>
      </trkpt>
      <trkpt lat="38.9962690" lon="-3.9185250">
        <ele>627.9</ele>
        <time>2022-11-01T14:06:57Z</time>
      </trkpt>
      <trkpt lat="38.9961340" lon="-3.9185910">
        <ele>627.9</ele>
        <time>2022-11-01T14:07:08Z</time>
      </trkpt>
      <trkpt lat="38.9959950" lon="-3.9186840">
        <ele>627.8</ele>
        <time>2022-11-01T14:07:20Z</time>
      </trkpt>
      <trkpt lat="38.9958720" lon="-3.9188440">
        <ele>627.8</ele>
        <time>2022-11-01T14:07:34Z</time>
      </trkpt>
      <trkpt lat="38.9958170" lon="-3.9189350">
        <ele>627.7</ele>
        <time>2022-11-01T14:07:42Z</time>
      </trkpt>
      <trkpt lat="38.9957320" lon="-3.9190240">
        <ele>627.6</ele>
        <time>2022-11-01T14:07:51Z</time>
      </trkpt>
      <trkpt lat="38.9956550" lon="-3.9190870">
        <ele>627.5</ele>
        <time>2022-11-01T14:07:59Z</time>
      </trkpt>
      <trkpt lat="38.9955310" lon="-3.9192080">
        <ele>627.3</ele>
        <time>2022-11-01T14:08:10Z</time>
      </trkpt>
      <trkpt lat="38.9954140" lon="-3.9193160">
        <ele>627.0</ele>
        <time>2022-11-01T14:08:20Z</time>
      </trkpt>
      <trkpt lat="38.9953920" lon="-3.9193220">
        <ele>627.0</ele>
        <time>2022-11-01T14:08:22Z</time>
      </trkpt>
      <trkpt lat="38.9953700" lon="-3.9193210">
        <ele>627.0</ele>
        <time>2022-11-01T14:08:24Z</time>
      </trkpt>
      <trkpt lat="38.9953510" lon="-3.9193200">
        <ele>626.9</ele>
        <time>2022-11-01T14:08:26Z</time>
      </trkpt>
      <trkpt lat="38.9953330" lon="-3.9193210">
        <ele>626.9</ele>
        <time>2022-11-01T14:08:28Z</time>
      </trkpt>
      <trkpt lat="38.9952820" lon="-3.9193300">
        <ele>626.8</ele>
        <time>2022-11-01T14:08:31Z</time>
      </trkpt>
      <trkpt lat="38.9952390" lon="-3.9193220">
        <ele>626.8</ele>
        <time>2022-11-01T14:08:34Z</time>
      </trkpt>
      <trkpt lat="38.9952120" lon="-3.9193590">
        <ele>626.8</ele>
        <time>2022-11-01T14:08:36Z</time>
      </trkpt>
      <trkpt lat="38.9951290" lon="-3.9194600">
        <ele>626.8</ele>
        <time>2022-11-01T14:08:43Z</time>
      </trkpt>
      <trkpt lat="38.9950340" lon="-3.9194730">
        <ele>627.0</ele>
        <time>2022-11-01T14:08:51Z</time>
      </trkpt>
      <trkpt lat="38.9949360" lon="-3.9194970">
        <ele>627.1</ele>
        <time>2022-11-01T14:09:02Z</time>
      </trkpt>
      <trkpt lat="38.9948000" lon="-3.9195350">
        <ele>627.2</ele>
        <time>2022-11-01T14:09:11Z</time>
      </trkpt>
      <trkpt lat="38.9947100" lon="-3.9195290">
        <ele>627.2</ele>
        <time>2022-11-01T14:09:19Z</time>
      </trkpt>
      <trkpt lat="38.9945900" lon="-3.9196000">
        <ele>627.3</ele>
        <time>2022-11-01T14:09:29Z</time>
      </trkpt>
      <trkpt lat="38.9945420" lon="-3.9196990">
        <ele>627.3</ele>
        <time>2022-11-01T14:09:36Z</time>
      </trkpt>
      <trkpt lat="38.9944840" lon="-3.9198300">
        <ele>627.5</ele>
        <time>2022-11-01T14:09:45Z</time>
      </trkpt>
      <trkpt lat="38.9944290" lon="-3.9199030">
        <ele>627.7</ele>
        <time>2022-11-01T14:09:51Z</time>
      </trkpt>
      <trkpt lat="38.9944140" lon="-3.9199310">
        <ele>627.7</ele>
        <time>2022-11-01T14:09:53Z</time>
      </trkpt>
      <trkpt lat="38.9943550" lon="-3.9200290">
        <ele>628.0</ele>
        <time>2022-11-01T14:10:00Z</time>
      </trkpt>
      <trkpt lat="38.9943120" lon="-3.9201570">
        <ele>628.3</ele>
        <time>2022-11-01T14:10:09Z</time>
      </trkpt>
      <trkpt lat="38.9942320" lon="-3.9202650">
        <ele>628.8</ele>
        <time>2022-11-01T14:10:19Z</time>
      </trkpt>
      <trkpt lat="38.9941960" lon="-3.9203840">
        <ele>629.0</ele>
        <time>2022-11-01T14:10:27Z</time>
      </trkpt>
      <trkpt lat="38.9941660" lon="-3.9204740">
        <ele>629.1</ele>
        <time>2022-11-01T14:10:35Z</time>
      </trkpt>
      <trkpt lat="38.9941010" lon="-3.9206520">
        <ele>629.3</ele>
        <time>2022-11-01T14:10:46Z</time>
      </trkpt>
      <trkpt lat="38.9940620" lon="-3.9207540">
        <ele>629.3</ele>
        <time>2022-11-01T14:10:53Z</time>
      </trkpt>
      <trkpt lat="38.9940250" lon="-3.9208510">
        <ele>629.2</ele>
        <time>2022-11-01T14:11:00Z</time>
      </trkpt>
      <trkpt lat="38.9939600" lon="-3.9209730">
        <ele>628.9</ele>
        <time>2022-11-01T14:11:09Z</time>
      </trkpt>
      <trkpt lat="38.9939390" lon="-3.9210130">
        <ele>628.7</ele>
        <time>2022-11-01T14:11:13Z</time>
      </trkpt>
      <trkpt lat="38.9939200" lon="-3.9210230">
        <ele>628.6</ele>
        <time>2022-11-01T14:11:15Z</time>
      </trkpt>
      <trkpt lat="38.9938450" lon="-3.9210400">
        <ele>628.4</ele>
        <time>2022-11-01T14:11:23Z</time>
      </trkpt>
      <trkpt lat="38.9938100" lon="-3.9210720">
        <ele>628.1</ele>
        <time>2022-11-01T14:11:28Z</time>
      </trkpt>
      <trkpt lat="38.9937350" lon="-3.9210940">
        <ele>627.8</ele>
        <time>2022-11-01T14:11:33Z</time>
      </trkpt>
      <trkpt lat="38.9937020" lon="-3.9211130">
        <ele>627.7</ele>
        <time>2022-11-01T14:11:35Z</time>
      </trkpt>
      <trkpt lat="38.9936370" lon="-3.9211700">
        <ele>627.7</ele>
        <time>2022-11-01T14:11:42Z</time>
      </trkpt>
      <trkpt lat="38.9935420" lon="-3.9212480">
        <ele>627.5</ele>
        <time>2022-11-01T14:11:49Z</time>
      </trkpt>
      <trkpt lat="38.9934800" lon="-3.9212950">
        <ele>627.4</ele>
        <time>2022-11-01T14:11:56Z</time>
      </trkpt>
      <trkpt lat="38.9934590" lon="-3.9213160">
        <ele>627.4</ele>
        <time>2022-11-01T14:11:58Z</time>
      </trkpt>
      <trkpt lat="38.9934480" lon="-3.9213250">
        <ele>627.4</ele>
        <time>2022-11-01T14:11:59Z</time>
      </trkpt>
      <trkpt lat="38.9933280" lon="-3.9214240">
        <ele>627.2</ele>
        <time>2022-11-01T14:12:07Z</time>
      </trkpt>
      <trkpt lat="38.9932200" lon="-3.9215450">
        <ele>627.1</ele>
        <time>2022-11-01T14:12:17Z</time>
      </trkpt>
      <trkpt lat="38.9931700" lon="-3.9216440">
        <ele>627.2</ele>
        <time>2022-11-01T14:12:25Z</time>
      </trkpt>
      <trkpt lat="38.9931390" lon="-3.9217450">
        <ele>627.2</ele>
        <time>2022-11-01T14:12:32Z</time>
      </trkpt>
      <trkpt lat="38.9931260" lon="-3.9217820">
        <ele>627.2</ele>
        <time>2022-11-01T14:12:34Z</time>
      </trkpt>
      <trkpt lat="38.9930560" lon="-3.9218470">
        <ele>627.2</ele>
        <time>2022-11-01T14:12:42Z</time>
      </trkpt>
      <trkpt lat="38.9929330" lon="-3.9219400">
        <ele>627.3</ele>
        <time>2022-11-01T14:12:51Z</time>
      </trkpt>
      <trkpt lat="38.9928950" lon="-3.9219400">
        <ele>627.3</ele>
        <time>2022-11-01T14:12:54Z</time>
      </trkpt>
      <trkpt lat="38.9928770" lon="-3.9219530">
        <ele>627.4</ele>
        <time>2022-11-01T14:12:56Z</time>
      </trkpt>
      <trkpt lat="38.9928670" lon="-3.9219620">
        <ele>627.4</ele>
        <time>2022-11-01T14:12:57Z</time>
      </trkpt>
      <trkpt lat="38.9928310" lon="-3.9219830">
        <ele>627.4</ele>
        <time>2022-11-01T14:13:00Z</time>
      </trkpt>
      <trkpt lat="38.9927970" lon="-3.9220090">
        <ele>627.4</ele>
        <time>2022-11-01T14:13:03Z</time>
      </trkpt>
      <trkpt lat="38.9927410" lon="-3.9220510">
        <ele>627.5</ele>
        <time>2022-11-01T14:13:07Z</time>
      </trkpt>
      <trkpt lat="38.9926880" lon="-3.9220890">
        <ele>627.5</ele>
        <time>2022-11-01T14:13:10Z</time>
      </trkpt>
      <trkpt lat="38.9926150" lon="-3.9221570">
        <ele>627.6</ele>
        <time>2022-11-01T14:13:17Z</time>
      </trkpt>
      <trkpt lat="38.9925610" lon="-3.9222390">
        <ele>627.6</ele>
        <time>2022-11-01T14:13:24Z</time>
      </trkpt>
      <trkpt lat="38.9925350" lon="-3.9222720">
        <ele>627.7</ele>
        <time>2022-11-01T14:13:27Z</time>
      </trkpt>
      <trkpt lat="38.9925170" lon="-3.9223410">
        <ele>627.7</ele>
        <time>2022-11-01T14:13:31Z</time>
      </trkpt>
      <trkpt lat="38.9925260" lon="-3.9223600">
        <ele>627.7</ele>
        <time>2022-11-01T14:13:32Z</time>
      </trkpt>
      <trkpt lat="38.9925390" lon="-3.9224100">
        <ele>627.7</ele>
        <time>2022-11-01T14:13:34Z</time>
      </trkpt>
      <trkpt lat="38.9925420" lon="-3.9224610">
        <ele>627.8</ele>
        <time>2022-11-01T14:13:36Z</time>
      </trkpt>
      <trkpt lat="38.9925660" lon="-3.9225300">
        <ele>627.8</ele>
        <time>2022-11-01T14:13:41Z</time>
      </trkpt>
      <trkpt lat="38.9925620" lon="-3.9225490">
        <ele>627.9</ele>
        <time>2022-11-01T14:13:42Z</time>
      </trkpt>
      <trkpt lat="38.9925530" lon="-3.9226160">
        <ele>628.3</ele>
        <time>2022-11-01T14:13:46Z</time>
      </trkpt>
      <trkpt lat="38.9925800" lon="-3.9227020">
        <ele>628.3</ele>
        <time>2022-11-01T14:13:51Z</time>
      </trkpt>
      <trkpt lat="38.9926050" lon="-3.9227410">
        <ele>628.3</ele>
        <time>2022-11-01T14:13:54Z</time>
      </trkpt>
      <trkpt lat="38.9926800" lon="-3.9228240">
        <ele>628.4</ele>
        <time>2022-11-01T14:14:02Z</time>
      </trkpt>
      <trkpt lat="38.9927530" lon="-3.9228990">
        <ele>628.4</ele>
        <time>2022-11-01T14:14:10Z</time>
      </trkpt>
      <trkpt lat="38.9927700" lon="-3.9229290">
        <ele>628.4</ele>
        <time>2022-11-01T14:14:12Z</time>
      </trkpt>
      <trkpt lat="38.9928040" lon="-3.9229740">
        <ele>628.4</ele>
        <time>2022-11-01T14:14:16Z</time>
      </trkpt>
      <trkpt lat="38.9928480" lon="-3.9230240">
        <ele>628.4</ele>
        <time>2022-11-01T14:14:20Z</time>
      </trkpt>
      <trkpt lat="38.9928690" lon="-3.9230490">
        <ele>628.4</ele>
        <time>2022-11-01T14:14:22Z</time>
      </trkpt>
      <trkpt lat="38.9928640" lon="-3.9231280">
        <ele>628.5</ele>
        <time>2022-11-01T14:14:27Z</time>
      </trkpt>
      <trkpt lat="38.9928710" lon="-3.9231600">
        <ele>628.5</ele>
        <time>2022-11-01T14:14:29Z</time>
      </trkpt>
      <trkpt lat="38.9928600" lon="-3.9232440">
        <ele>628.5</ele>
        <time>2022-11-01T14:14:34Z</time>
      </trkpt>
      <trkpt lat="38.9928530" lon="-3.9232990">
        <ele>628.5</ele>
        <time>2022-11-01T14:14:37Z</time>
      </trkpt>
      <trkpt lat="38.9928680" lon="-3.9233400">
        <ele>628.6</ele>
        <time>2022-11-01T14:14:41Z</time>
      </trkpt>
      <trkpt lat="38.9928770" lon="-3.9233520">
        <ele>628.6</ele>
        <time>2022-11-01T14:14:42Z</time>
      </trkpt>
      <trkpt lat="38.9928810" lon="-3.9233680">
        <ele>628.6</ele>
        <time>2022-11-01T14:14:43Z</time>
      </trkpt>
      <trkpt lat="38.9928730" lon="-3.9234360">
        <ele>628.6</ele>
        <time>2022-11-01T14:14:47Z</time>
      </trkpt>
      <trkpt lat="38.9928680" lon="-3.9234590">
        <ele>628.6</ele>
        <time>2022-11-01T14:14:48Z</time>
      </trkpt>
      <trkpt lat="38.9928340" lon="-3.9236520">
        <ele>628.7</ele>
        <time>2022-11-01T14:14:55Z</time>
      </trkpt>
      <trkpt lat="38.9928080" lon="-3.9237100">
        <ele>628.8</ele>
        <time>2022-11-01T14:15:01Z</time>
      </trkpt>
      <trkpt lat="38.9928110" lon="-3.9237640">
        <ele>628.8</ele>
        <time>2022-11-01T14:15:07Z</time>
      </trkpt>
      <trkpt lat="38.9928100" lon="-3.9237720">
        <ele>628.8</ele>
        <time>2022-11-01T14:15:08Z</time>
      </trkpt>
      <trkpt lat="38.9928050" lon="-3.9237840">
        <ele>628.8</ele>
        <time>2022-11-01T14:15:09Z</time>
      </trkpt>
      <trkpt lat="38.9928030" lon="-3.9238490">
        <ele>628.8</ele>
        <time>2022-11-01T14:15:13Z</time>
      </trkpt>
      <trkpt lat="38.9927770" lon="-3.9239620">
        <ele>628.8</ele>
        <time>2022-11-01T14:15:21Z</time>
      </trkpt>
      <trkpt lat="38.9927630" lon="-3.9240530">
        <ele>628.9</ele>
        <time>2022-11-01T14:15:27Z</time>
      </trkpt>
      <trkpt lat="38.9927360" lon="-3.9241400">
        <ele>628.9</ele>
        <time>2022-11-01T14:15:32Z</time>
      </trkpt>
      <trkpt lat="38.9927390" lon="-3.9241730">
        <ele>628.9</ele>
        <time>2022-11-01T14:15:34Z</time>
      </trkpt>
      <trkpt lat="38.9927560" lon="-3.9242570">
        <ele>628.9</ele>
        <time>2022-11-01T14:15:39Z</time>
      </trkpt>
      <trkpt lat="38.9927510" lon="-3.9242900">
        <ele>628.9</ele>
        <time>2022-11-01T14:15:40Z</time>
      </trkpt>
      <trkpt lat="38.9927300" lon="-3.9243770">
        <ele>628.9</ele>
        <time>2022-11-01T14:15:43Z</time>
      </trkpt>
      <trkpt lat="38.9927240" lon="-3.9243950">
        <ele>628.9</ele>
        <time>2022-11-01T14:15:44Z</time>
      </trkpt>
      <trkpt lat="38.9927180" lon="-3.9244250">
        <ele>628.9</ele>
        <time>2022-11-01T14:15:46Z</time>
      </trkpt>
      <trkpt lat="38.9927040" lon="-3.9244540">
        <ele>628.9</ele>
        <time>2022-11-01T14:15:48Z</time>
      </trkpt>
      <trkpt lat="38.9926840" lon="-3.9244700">
        <ele>628.9</ele>
        <time>2022-11-01T14:15:49Z</time>
      </trkpt>
      <trkpt lat="38.9926740" lon="-3.9244890">
        <ele>628.9</ele>
        <time>2022-11-01T14:15:50Z</time>
      </trkpt>
      <trkpt lat="38.9926760" lon="-3.9245450">
        <ele>628.9</ele>
        <time>2022-11-01T14:15:53Z</time>
      </trkpt>
      <trkpt lat="38.9926750" lon="-3.9245570">
        <ele>628.9</ele>
        <time>2022-11-01T14:15:54Z</time>
      </trkpt>
      <trkpt lat="38.9926720" lon="-3.9245670">
        <ele>628.9</ele>
        <time>2022-11-01T14:15:55Z</time>
      </trkpt>
      <trkpt lat="38.9926630" lon="-3.9246360">
        <ele>628.9</ele>
        <time>2022-11-01T14:16:00Z</time>
      </trkpt>
      <trkpt lat="38.9926580" lon="-3.9247500">
        <ele>629.0</ele>
        <time>2022-11-01T14:16:07Z</time>
      </trkpt>
      <trkpt lat="38.9926340" lon="-3.9248630">
        <ele>629.0</ele>
        <time>2022-11-01T14:16:13Z</time>
      </trkpt>
      <trkpt lat="38.9926230" lon="-3.9249710">
        <ele>629.1</ele>
        <time>2022-11-01T14:16:17Z</time>
      </trkpt>
      <trkpt lat="38.9926220" lon="-3.9249900">
        <ele>629.1</ele>
        <time>2022-11-01T14:16:19Z</time>
      </trkpt>
      <trkpt lat="38.9926230" lon="-3.9250070">
        <ele>629.1</ele>
        <time>2022-11-01T14:16:21Z</time>
      </trkpt>
      <trkpt lat="38.9926240" lon="-3.9250500">
        <ele>629.1</ele>
        <time>2022-11-01T14:16:24Z</time>
      </trkpt>
      <trkpt lat="38.9926040" lon="-3.9250990">
        <ele>629.1</ele>
        <time>2022-11-01T14:16:28Z</time>
      </trkpt>
      <trkpt lat="38.9925950" lon="-3.9251260">
        <ele>629.1</ele>
        <time>2022-11-01T14:16:30Z</time>
      </trkpt>
      <trkpt lat="38.9925940" lon="-3.9251710">
        <ele>629.1</ele>
        <time>2022-11-01T14:16:33Z</time>
      </trkpt>
      <trkpt lat="38.9925900" lon="-3.9252060">
        <ele>629.1</ele>
        <time>2022-11-01T14:16:35Z</time>
      </trkpt>
      <trkpt lat="38.9925840" lon="-3.9252190">
        <ele>629.1</ele>
        <time>2022-11-01T14:16:36Z</time>
      </trkpt>
      <trkpt lat="38.9925640" lon="-3.9252740">
        <ele>629.1</ele>
        <time>2022-11-01T14:16:40Z</time>
      </trkpt>
      <trkpt lat="38.9925430" lon="-3.9253420">
        <ele>629.1</ele>
        <time>2022-11-01T14:16:45Z</time>
      </trkpt>
      <trkpt lat="38.9925290" lon="-3.9253790">
        <ele>629.1</ele>
        <time>2022-11-01T14:16:47Z</time>
      </trkpt>
      <trkpt lat="38.9924930" lon="-3.9255060">
        <ele>629.1</ele>
        <time>2022-11-01T14:16:55Z</time>
      </trkpt>
      <trkpt lat="38.9924930" lon="-3.9255650">
        <ele>629.1</ele>
        <time>2022-11-01T14:16:58Z</time>
      </trkpt>
      <trkpt lat="38.9924800" lon="-3.9256540">
        <ele>629.2</ele>
        <time>2022-11-01T14:17:03Z</time>
      </trkpt>
      <trkpt lat="38.9924680" lon="-3.9257620">
        <ele>629.1</ele>
        <time>2022-11-01T14:17:11Z</time>
      </trkpt>
      <trkpt lat="38.9924830" lon="-3.9258100">
        <ele>629.1</ele>
        <time>2022-11-01T14:17:15Z</time>
      </trkpt>
      <trkpt lat="38.9925050" lon="-3.9258370">
        <ele>629.1</ele>
        <time>2022-11-01T14:17:17Z</time>
      </trkpt>
      <trkpt lat="38.9924960" lon="-3.9259460">
        <ele>629.0</ele>
        <time>2022-11-01T14:17:23Z</time>
      </trkpt>
      <trkpt lat="38.9924990" lon="-3.9260000">
        <ele>629.0</ele>
        <time>2022-11-01T14:17:27Z</time>
      </trkpt>
      <trkpt lat="38.9925020" lon="-3.9260260">
        <ele>629.0</ele>
        <time>2022-11-01T14:17:29Z</time>
      </trkpt>
      <trkpt lat="38.9924920" lon="-3.9261170">
        <ele>628.9</ele>
        <time>2022-11-01T14:17:36Z</time>
      </trkpt>
      <trkpt lat="38.9924970" lon="-3.9261810">
        <ele>628.9</ele>
        <time>2022-11-01T14:17:40Z</time>
      </trkpt>
      <trkpt lat="38.9925170" lon="-3.9262020">
        <ele>628.9</ele>
        <time>2022-11-01T14:17:42Z</time>
      </trkpt>
      <trkpt lat="38.9925260" lon="-3.9262450">
        <ele>628.9</ele>
        <time>2022-11-01T14:17:45Z</time>
      </trkpt>
      <trkpt lat="38.9925090" lon="-3.9262820">
        <ele>628.8</ele>
        <time>2022-11-01T14:17:47Z</time>
      </trkpt>
      <trkpt lat="38.9924800" lon="-3.9263240">
        <ele>628.8</ele>
        <time>2022-11-01T14:17:50Z</time>
      </trkpt>
      <trkpt lat="38.9924720" lon="-3.9263530">
        <ele>628.8</ele>
        <time>2022-11-01T14:17:52Z</time>
      </trkpt>
      <trkpt lat="38.9924720" lon="-3.9263840">
        <ele>628.8</ele>
        <time>2022-11-01T14:17:54Z</time>
      </trkpt>
      <trkpt lat="38.9924820" lon="-3.9264360">
        <ele>628.8</ele>
        <time>2022-11-01T14:17:58Z</time>
      </trkpt>
      <trkpt lat="38.9924900" lon="-3.9265430">
        <ele>628.7</ele>
        <time>2022-11-01T14:18:05Z</time>
      </trkpt>
      <trkpt lat="38.9925020" lon="-3.9266160">
        <ele>628.6</ele>
        <time>2022-11-01T14:18:11Z</time>
      </trkpt>
      <trkpt lat="38.9924970" lon="-3.9267070">
        <ele>628.5</ele>
        <time>2022-11-01T14:18:17Z</time>
      </trkpt>
      <trkpt lat="38.9924720" lon="-3.9267460">
        <ele>628.5</ele>
        <time>2022-11-01T14:18:22Z</time>
      </trkpt>
      <trkpt lat="38.9924600" lon="-3.9267420">
        <ele>628.5</ele>
        <time>2022-11-01T14:18:23Z</time>
      </trkpt>
      <trkpt lat="38.9923890" lon="-3.9267500">
        <ele>628.4</ele>
        <time>2022-11-01T14:18:28Z</time>
      </trkpt>
      <trkpt lat="38.9921920" lon="-3.9267750">
        <ele>628.1</ele>
        <time>2022-11-01T14:18:39Z</time>
      </trkpt>
      <trkpt lat="38.9921520" lon="-3.9267770">
        <ele>628.1</ele>
        <time>2022-11-01T14:18:42Z</time>
      </trkpt>
      <trkpt lat="38.9921260" lon="-3.9268010">
        <ele>628.0</ele>
        <time>2022-11-01T14:18:44Z</time>
      </trkpt>
      <trkpt lat="38.9921110" lon="-3.9268090">
        <ele>628.0</ele>
        <time>2022-11-01T14:18:45Z</time>
      </trkpt>
      <trkpt lat="38.9920820" lon="-3.9268160">
        <ele>628.0</ele>
        <time>2022-11-01T14:18:47Z</time>
      </trkpt>
      <trkpt lat="38.9920470" lon="-3.9268400">
        <ele>627.9</ele>
        <time>2022-11-01T14:18:50Z</time>
      </trkpt>
      <trkpt lat="38.9920470" lon="-3.9268400">
        <ele>627.9</ele>
        <time>2022-11-01T14:18:54Z</time>
      </trkpt>
    </trkseg>
  </trk>
</gpx>
